Observation data for Goodnight on 08/15/2019      Previous  Date       Current Mesonet Observations  Soil Data  Daily Summary Page  Observations in Plain Language
KGO1 150500Z 15007KT 25/16 A3019 RMK A01 T02510162  RH  058%=      5-min Rain = 0
KGO1 150501Z 15007KT 25/16 A302 RMK A01 T02510162  RH  058%=      5-min Rain = 0
KGO1 150502Z 14007KT 25/16 A302 RMK A01 T02510162  RH  058%=      5-min Rain = 0
KGO1 150503Z 15007KT 25/16 A302 RMK A01 T02510162  RH  058%=      5-min Rain = 0
KGO1 150504Z 15007KT 25/16 A302 RMK A01 T02510162  RH  058%=      5-min Rain = 0
KGO1 150505Z 15006KT 25/16 A302 RMK A01 T02510162  RH  058%=      5-min Rain = 0
KGO1 150506Z 15006KT 25/16 A302 RMK A01 T02500162  RH  058%=      5-min Rain = 0
KGO1 150507Z 15007KT 25/16 A302 RMK A01 T02500162  RH  058%=      5-min Rain = 0
KGO1 150508Z 15006KT 25/16 A302 RMK A01 T02500162  RH  058%=      5-min Rain = 0
KGO1 150509Z 15007KT 25/16 A302 RMK A01 T02500162  RH  058%=      5-min Rain = 0
KGO1 150510Z 15007KT 25/16 A302 RMK A01 T02500162  RH  058%=      5-min Rain = 0
KGO1 150511Z 15006KT 25/16 A302 RMK A01 T02500162  RH  058%=      5-min Rain = 0
KGO1 150512Z 14006KT 25/16 A302 RMK A01 T02500162  RH  058%=      5-min Rain = 0
KGO1 150513Z 15007KT 25/16 A302 RMK A01 T02490162  RH  058%=      5-min Rain = 0
KGO1 150514Z 15007KT 25/16 A302 RMK A01 T02490162  RH  058%=      5-min Rain = 0
KGO1 150515Z 15007KT 25/16 A302 RMK A01 T02490162  RH  058%=      5-min Rain = 0
KGO1 150516Z 15007KT 25/16 A3019 RMK A01 T02490162  RH  058%=      5-min Rain = 0
KGO1 150517Z 15007KT 25/16 A3019 RMK A01 T02490162  RH  058%=      5-min Rain = 0
KGO1 150518Z 15007KT 25/16 A3019 RMK A01 T02490162  RH  058%=      5-min Rain = 0
KGO1 150519Z 15007KT 25/16 A3019 RMK A01 T02490162  RH  059%=      5-min Rain = 0
KGO1 150520Z 15007KT 25/16 A3019 RMK A01 T02480162  RH  059%=      5-min Rain = 0
KGO1 150521Z 15007KT 25/16 A3019 RMK A01 T02480162  RH  059%=      5-min Rain = 0
KGO1 150522Z 15007KT 25/16 A3019 RMK A01 T02480162  RH  059%=      5-min Rain = 0
KGO1 150523Z 15007KT 25/16 A3019 RMK A01 T02480162  RH  059%=      5-min Rain = 0
KGO1 150524Z 15007KT 25/16 A3019 RMK A01 T02470162  RH  059%=      5-min Rain = 0
KGO1 150525Z 15007KT 25/16 A3019 RMK A01 T02470162  RH  059%=      5-min Rain = 0
KGO1 150526Z 15007KT 25/16 A3019 RMK A01 T02470162  RH  059%=      5-min Rain = 0
KGO1 150527Z 15007KT 25/16 A3019 RMK A01 T02470162  RH  059%=      5-min Rain = 0
KGO1 150528Z 15007KT 25/16 A3019 RMK A01 T02470162  RH  059%=      5-min Rain = 0
KGO1 150529Z 15006KT 25/16 A3019 RMK A01 T02470162  RH  059%=      5-min Rain = 0
KGO1 150530Z 15006KT 25/16 A3019 RMK A01 T02470162  RH  059%=      5-min Rain = 0
KGO1 150531Z 15007KT 25/16 A3019 RMK A01 T02470162  RH  059%=      5-min Rain = 0
KGO1 150532Z 15006KT 25/16 A3019 RMK A01 T02460162  RH  059%=      5-min Rain = 0
KGO1 150533Z 15006KT 25/16 A3019 RMK A01 T02460162  RH  059%=      5-min Rain = 0
KGO1 150534Z 15006KT 25/16 A3019 RMK A01 T02460162  RH  059%=      5-min Rain = 0
KGO1 150535Z 15006KT 25/16 A3019 RMK A01 T02460162  RH  060%=      5-min Rain = 0
KGO1 150536Z 15006KT 25/16 A3019 RMK A01 T02460162  RH  060%=      5-min Rain = 0
KGO1 150537Z 15007KT 25/16 A3019 RMK A01 T02460162  RH  060%=      5-min Rain = 0
KGO1 150538Z 15006KT 25/16 A3019 RMK A01 T02460162  RH  060%=      5-min Rain = 0
KGO1 150539Z 15006KT 25/16 A3019 RMK A01 T02460162  RH  060%=      5-min Rain = 0
KGO1 150540Z 15006KT 25/16 A3019 RMK A01 T02450162  RH  060%=      5-min Rain = 0
KGO1 150541Z 15006KT 25/16 A3019 RMK A01 T02450162  RH  060%=      5-min Rain = 0
KGO1 150542Z 15006KT 24/16 A3019 RMK A01 T02440162  RH  060%=      5-min Rain = 0
KGO1 150543Z 15006KT 24/16 A3019 RMK A01 T02440163  RH  060%=      5-min Rain = 0
KGO1 150544Z 15006KT 24/16 A3019 RMK A01 T02440163  RH  061%=      5-min Rain = 0
KGO1 150545Z 15006KT 24/16 A3019 RMK A01 T02430162  RH  061%=      5-min Rain = 0
KGO1 150546Z 15006KT 24/16 A3019 RMK A01 T02430162  RH  061%=      5-min Rain = 0
KGO1 150547Z 15007KT 24/16 A3019 RMK A01 T02430162  RH  061%=      5-min Rain = 0
KGO1 150548Z 15006KT 24/16 A3019 RMK A01 T02430162  RH  061%=      5-min Rain = 0
KGO1 150549Z 15006KT 24/16 A3019 RMK A01 T02430163  RH  061%=      5-min Rain = 0
KGO1 150550Z 15006KT 24/16 A3019 RMK A01 T02430163  RH  061%=      5-min Rain = 0
KGO1 150551Z 15007KT 24/16 A3019 RMK A01 T02420162  RH  061%=      5-min Rain = 0
KGO1 150552Z 15007KT 24/16 A3019 RMK A01 T02420163  RH  061%=      5-min Rain = 0
KGO1 150553Z 16007KT 24/16 A3019 RMK A01 T02410162  RH  061%=      5-min Rain = 0
KGO1 150554Z 16007KT 24/16 A3019 RMK A01 T02410163  RH  062%=      5-min Rain = 0
KGO1 150555Z 16007KT 24/16 A3019 RMK A01 T02400163  RH  062%=      5-min Rain = 0
KGO1 150556Z 16007KT 24/16 A3019 RMK A01 T02390163  RH  062%=      5-min Rain = 0
KGO1 150557Z 16007KT 24/16 A3019 RMK A01 T02390163  RH  062%=      5-min Rain = 0
KGO1 150558Z 16008KT 24/16 A3019 RMK A01 T02380163  RH  063%=      5-min Rain = 0
KGO1 150559Z 16007KT 24/16 A3019 RMK A01 T02380163  RH  063%=      5-min Rain = 0
KGO1 150600Z 16008KT 24/16 A3019 RMK A01 T02380163  RH  063%=      5-min Rain = 0
KGO1 150601Z 16008KT 24/16 A3018 RMK A01 T02380163  RH  063%=      5-min Rain = 0
KGO1 150602Z 16007KT 24/16 A3018 RMK A01 T02380163  RH  063%=      5-min Rain = 0
KGO1 150603Z 16007KT 24/16 A3018 RMK A01 T02380163  RH  063%=      5-min Rain = 0
KGO1 150604Z 16007KT 24/16 A3018 RMK A01 T02370163  RH  063%=      5-min Rain = 0
KGO1 150605Z 16007KT 24/16 A3018 RMK A01 T02370163  RH  063%=      5-min Rain = 0
KGO1 150606Z 16007KT 24/16 A3019 RMK A01 T02360163  RH  064%=      5-min Rain = 0
KGO1 150607Z 16007KT 24/16 A3019 RMK A01 T02350163  RH  064%=      5-min Rain = 0
KGO1 150608Z 16006KT 24/16 A3019 RMK A01 T02350163  RH  064%=      5-min Rain = 0
KGO1 150609Z 16006KT 23/16 A3019 RMK A01 T02340163  RH  064%=      5-min Rain = 0
KGO1 150610Z 16006KT 23/16 A3019 RMK A01 T02340163  RH  064%=      5-min Rain = 0
KGO1 150611Z 17006KT 23/16 A3018 RMK A01 T02330163  RH  065%=      5-min Rain = 0
KGO1 150612Z 17006KT 23/16 A3018 RMK A01 T02330163  RH  065%=      5-min Rain = 0
KGO1 150613Z 17006KT 23/16 A3018 RMK A01 T02330163  RH  065%=      5-min Rain = 0
KGO1 150614Z 16006KT 23/16 A3018 RMK A01 T02330163  RH  065%=      5-min Rain = 0
KGO1 150615Z 16006KT 23/16 A3018 RMK A01 T02330163  RH  065%=      5-min Rain = 0
KGO1 150616Z 16006KT 23/16 A3018 RMK A01 T02330163  RH  065%=      5-min Rain = 0
KGO1 150617Z 16006KT 23/16 A3018 RMK A01 T02320163  RH  065%=      5-min Rain = 0
KGO1 150618Z 16006KT 23/16 A3018 RMK A01 T02320163  RH  065%=      5-min Rain = 0
KGO1 150619Z 16006KT 23/16 A3018 RMK A01 T02320163  RH  065%=      5-min Rain = 0
KGO1 150620Z 16006KT 23/16 A3018 RMK A01 T02320163  RH  065%=      5-min Rain = 0
KGO1 150621Z 16006KT 23/16 A3018 RMK A01 T02320163  RH  065%=      5-min Rain = 0
KGO1 150622Z 16006KT 23/16 A3018 RMK A01 T02310163  RH  065%=      5-min Rain = 0
KGO1 150623Z 16006KT 23/16 A3018 RMK A01 T02310163  RH  066%=      5-min Rain = 0
KGO1 150624Z 17006KT 23/16 A3018 RMK A01 T02310163  RH  066%=      5-min Rain = 0
KGO1 150625Z 17006KT 23/16 A3018 RMK A01 T02310163  RH  066%=      5-min Rain = 0
KGO1 150626Z 17006KT 23/16 A3018 RMK A01 T02300163  RH  066%=      5-min Rain = 0
KGO1 150627Z 17007KT 23/16 A3018 RMK A01 T02300164  RH  066%=      5-min Rain = 0
KGO1 150628Z 17006KT 23/16 A3018 RMK A01 T02300164  RH  066%=      5-min Rain = 0
KGO1 150629Z 17006KT 23/16 A3018 RMK A01 T02300163  RH  066%=      5-min Rain = 0
KGO1 150630Z 16006KT 23/16 A3018 RMK A01 T02300163  RH  066%=      5-min Rain = 0
KGO1 150631Z 16006KT 23/16 A3018 RMK A01 T02300163  RH  066%=      5-min Rain = 0
KGO1 150632Z 16006KT 23/16 A3018 RMK A01 T02300163  RH  066%=      5-min Rain = 0
KGO1 150633Z 16006KT 23/16 A3018 RMK A01 T02310163  RH  066%=      5-min Rain = 0
KGO1 150634Z 15007KT 23/16 A3018 RMK A01 T02310163  RH  066%=      5-min Rain = 0
KGO1 150635Z 15007KT 23/16 A3018 RMK A01 T02310163  RH  066%=      5-min Rain = 0
KGO1 150636Z 15007KT 23/16 A3018 RMK A01 T02310164  RH  066%=      5-min Rain = 0
KGO1 150637Z 15006KT 23/16 A3018 RMK A01 T02310164  RH  066%=      5-min Rain = 0
KGO1 150638Z 15006KT 23/16 A3018 RMK A01 T02310164  RH  066%=      5-min Rain = 0
KGO1 150639Z 15006KT 23/16 A3018 RMK A01 T02310164  RH  066%=      5-min Rain = 0
KGO1 150640Z 15006KT 23/16 A3018 RMK A01 T02310164  RH  066%=      5-min Rain = 0
KGO1 150641Z 16006KT 23/17 A3018 RMK A01 T02320165  RH  066%=      5-min Rain = 0
KGO1 150642Z 16006KT 23/17 A3018 RMK A01 T02320165  RH  066%=      5-min Rain = 0
KGO1 150643Z 16006KT 23/17 A3018 RMK A01 T02320165  RH  066%=      5-min Rain = 0
KGO1 150644Z 16006KT 23/17 A3018 RMK A01 T02320165  RH  066%=      5-min Rain = 0
KGO1 150645Z 15006KT 23/17 A3019 RMK A01 T02320165  RH  066%=      5-min Rain = 0
KGO1 150646Z 15006KT 23/17 A3019 RMK A01 T02320165  RH  066%=      5-min Rain = 0
KGO1 150647Z 16006KT 23/17 A3019 RMK A01 T02310165  RH  066%=      5-min Rain = 0
KGO1 150648Z 15006KT 23/17 A3018 RMK A01 T02310165  RH  066%=      5-min Rain = 0
KGO1 150649Z 15006KT 23/17 A3018 RMK A01 T02300165  RH  067%=      5-min Rain = 0
KGO1 150650Z 15006KT 23/17 A3018 RMK A01 T02300165  RH  067%=      5-min Rain = 0
KGO1 150651Z 15007KT 23/17 A3018 RMK A01 T02300165  RH  067%=      5-min Rain = 0
KGO1 150652Z 15006KT 23/17 A3018 RMK A01 T02300165  RH  067%=      5-min Rain = 0
KGO1 150653Z 15006KT 23/17 A3018 RMK A01 T02300165  RH  067%=      5-min Rain = 0
KGO1 150654Z 16007KT 23/17 A3018 RMK A01 T02300165  RH  067%=      5-min Rain = 0
KGO1 150655Z 16007KT 23/17 A3018 RMK A01 T02300165  RH  067%=      5-min Rain = 0
KGO1 150656Z 16007KT 23/17 A3018 RMK A01 T02310165  RH  067%=      5-min Rain = 0
KGO1 150657Z 16007KT 23/17 A3018 RMK A01 T02310165  RH  066%=      5-min Rain = 0
KGO1 150658Z 16007KT 23/17 A3018 RMK A01 T02310165  RH  066%=      5-min Rain = 0
KGO1 150659Z 16007KT 23/17 A3018 RMK A01 T02320165  RH  066%=      5-min Rain = 0
KGO1 150700Z 16006KT 23/17 A3018 RMK A01 T02310165  RH  066%=      5-min Rain = 0
KGO1 150701Z 16006KT 23/17 A3018 RMK A01 T02310165  RH  066%=      5-min Rain = 0
KGO1 150702Z 16006KT 23/17 A3018 RMK A01 T02300165  RH  067%=      5-min Rain = 0
KGO1 150703Z 16006KT 23/17 A3018 RMK A01 T02300165  RH  067%=      5-min Rain = 0
KGO1 150704Z 16007KT 23/17 A3018 RMK A01 T02290165  RH  067%=      5-min Rain = 0
KGO1 150705Z 16006KT 23/17 A3018 RMK A01 T02280165  RH  068%=      5-min Rain = 0
KGO1 150706Z 16007KT 23/17 A3018 RMK A01 T02280165  RH  068%=      5-min Rain = 0
KGO1 150707Z 16007KT 23/17 A3018 RMK A01 T02270165  RH  068%=      5-min Rain = 0
KGO1 150708Z 16007KT 23/17 A3018 RMK A01 T02270165  RH  068%=      5-min Rain = 0
KGO1 150709Z 16007KT 23/17 A3018 RMK A01 T02260165  RH  068%=      5-min Rain = 0
KGO1 150710Z 16007KT 23/17 A3019 RMK A01 T02270165  RH  068%=      5-min Rain = 0
KGO1 150711Z 17006KT 23/17 A3019 RMK A01 T02260165  RH  068%=      5-min Rain = 0
KGO1 150712Z 17006KT 23/17 A3018 RMK A01 T02260165  RH  068%=      5-min Rain = 0
KGO1 150713Z 17006KT 23/17 A3018 RMK A01 T02260165  RH  069%=      5-min Rain = 0
KGO1 150714Z 17007KT 23/17 A3018 RMK A01 T02260166  RH  069%=      5-min Rain = 0
KGO1 150715Z 17007KT 23/17 A3018 RMK A01 T02260166  RH  069%=      5-min Rain = 0
KGO1 150716Z 18007KT 23/17 A3018 RMK A01 T02250167  RH  069%=      5-min Rain = 0
KGO1 150717Z 18007KT 22/17 A3018 RMK A01 T02240166  RH  070%=      5-min Rain = 0
KGO1 150718Z 18007KT 22/17 A3018 RMK A01 T02240166  RH  070%=      5-min Rain = 0
KGO1 150719Z 18007KT 22/17 A3018 RMK A01 T02240166  RH  070%=      5-min Rain = 0
KGO1 150720Z 18007KT 23/17 A3018 RMK A01 T02250166  RH  069%=      5-min Rain = 0
KGO1 150721Z 18007KT 23/17 A3018 RMK A01 T02250166  RH  069%=      5-min Rain = 0
KGO1 150722Z 17008KT 23/17 A3018 RMK A01 T02250166  RH  069%=      5-min Rain = 0
KGO1 150723Z 17008KT 23/17 A3018 RMK A01 T02250166  RH  069%=      5-min Rain = 0
KGO1 150724Z 17008KT 23/17 A3018 RMK A01 T02250166  RH  069%=      5-min Rain = 0
KGO1 150725Z 17009KT 23/17 A3018 RMK A01 T02250166  RH  069%=      5-min Rain = 0
KGO1 150726Z 18010KT 23/17 A3018 RMK A01 T02250166  RH  069%=      5-min Rain = 0
KGO1 150727Z 18010KT 23/17 A3018 RMK A01 T02260165  RH  069%=      5-min Rain = 0
KGO1 150728Z 18009KT 23/17 A3018 RMK A01 T02270166  RH  068%=      5-min Rain = 0
KGO1 150729Z 18009KT 23/17 A3018 RMK A01 T02270166  RH  068%=      5-min Rain = 0
KGO1 150730Z 18008KT 23/17 A3018 RMK A01 T02270166  RH  068%=      5-min Rain = 0
KGO1 150731Z 18008KT 23/17 A3018 RMK A01 T02270166  RH  068%=      5-min Rain = 0
KGO1 150732Z 17007KT 23/17 A3018 RMK A01 T02270165  RH  068%=      5-min Rain = 0
KGO1 150733Z 17007KT 23/17 A3018 RMK A01 T02270166  RH  068%=      5-min Rain = 0
KGO1 150734Z 17008KT 23/17 A3018 RMK A01 T02270166  RH  068%=      5-min Rain = 0
KGO1 150735Z 17008KT 23/17 A3018 RMK A01 T02280166  RH  068%=      5-min Rain = 0
KGO1 150736Z 18008KT 23/17 A3018 RMK A01 T02280166  RH  068%=      5-min Rain = 0
KGO1 150737Z 18008KT 23/17 A3018 RMK A01 T02290167  RH  068%=      5-min Rain = 0
KGO1 150738Z 18008KT 23/17 A3018 RMK A01 T02290167  RH  068%=      5-min Rain = 0
KGO1 150739Z 18008KT 23/17 A3018 RMK A01 T02290166  RH  068%=      5-min Rain = 0
KGO1 150740Z 18008KT 23/17 A3018 RMK A01 T02300167  RH  068%=      5-min Rain = 0
KGO1 150741Z 17007KT 23/17 A3018 RMK A01 T02300167  RH  068%=      5-min Rain = 0
KGO1 150742Z 17007KT 23/17 A3018 RMK A01 T02300167  RH  068%=      5-min Rain = 0
KGO1 150743Z 17008KT 23/17 A3018 RMK A01 T02310167  RH  068%=      5-min Rain = 0
KGO1 150744Z 17007KT 23/17 A3018 RMK A01 T02310168  RH  068%=      5-min Rain = 0
KGO1 150745Z 17007KT 23/17 A3018 RMK A01 T02310168  RH  068%=      5-min Rain = 0
KGO1 150746Z 17007KT 23/17 A3018 RMK A01 T02300168  RH  068%=      5-min Rain = 0
KGO1 150747Z 17007KT 23/17 A3018 RMK A01 T02300168  RH  068%=      5-min Rain = 0
KGO1 150748Z 17007KT 23/17 A3018 RMK A01 T02300168  RH  068%=      5-min Rain = 0
KGO1 150749Z 17007KT 23/17 A3018 RMK A01 T02300168  RH  068%=      5-min Rain = 0
KGO1 150750Z 17007KT 23/17 A3018 RMK A01 T02300168  RH  068%=      5-min Rain = 0
KGO1 150751Z 17007KT 23/17 A3018 RMK A01 T02300168  RH  068%=      5-min Rain = 0
KGO1 150752Z 17007KT 23/17 A3018 RMK A01 T02300169  RH  068%=      5-min Rain = 0
KGO1 150753Z 17007KT 23/17 A3018 RMK A01 T02300169  RH  068%=      5-min Rain = 0
KGO1 150754Z 17007KT 23/17 A3018 RMK A01 T02290168  RH  068%=      5-min Rain = 0
KGO1 150755Z 16007KT 23/17 A3018 RMK A01 T02300169  RH  069%=      5-min Rain = 0
KGO1 150756Z 16007KT 23/17 A3018 RMK A01 T02300169  RH  069%=      5-min Rain = 0
KGO1 150757Z 16007KT 23/17 A3018 RMK A01 T02290169  RH  069%=      5-min Rain = 0
KGO1 150758Z 16007KT 23/17 A3018 RMK A01 T02290169  RH  069%=      5-min Rain = 0
KGO1 150759Z 16007KT 23/17 A3018 RMK A01 T02290169  RH  069%=      5-min Rain = 0
KGO1 150800Z 16007KT 23/17 A3018 RMK A01 T02290169  RH  069%=      5-min Rain = 0
KGO1 150801Z 16007KT 23/17 A3018 RMK A01 T02290169  RH  069%=      5-min Rain = 0
KGO1 150802Z 16007KT 23/17 A3018 RMK A01 T02290169  RH  069%=      5-min Rain = 0
KGO1 150803Z 16007KT 23/17 A3018 RMK A01 T02290169  RH  069%=      5-min Rain = 0
KGO1 150804Z 16007KT 23/17 A3018 RMK A01 T02290170  RH  069%=      5-min Rain = 0
KGO1 150805Z 16007KT 23/17 A3018 RMK A01 T02290170  RH  069%=      5-min Rain = 0
KGO1 150806Z 16007KT 23/17 A3018 RMK A01 T02290170  RH  069%=      5-min Rain = 0
KGO1 150807Z 16007KT 23/17 A3018 RMK A01 T02290170  RH  069%=      5-min Rain = 0
KGO1 150808Z 16007KT 23/17 A3018 RMK A01 T02290170  RH  070%=      5-min Rain = 0
KGO1 150809Z 16007KT 23/17 A3018 RMK A01 T02280170  RH  070%=      5-min Rain = 0
KGO1 150810Z 16007KT 23/17 A3018 RMK A01 T02280170  RH  070%=      5-min Rain = 0
KGO1 150811Z 16007KT 23/17 A3018 RMK A01 T02280170  RH  070%=      5-min Rain = 0
KGO1 150812Z 16007KT 23/17 A3018 RMK A01 T02270170  RH  070%=      5-min Rain = 0
KGO1 150813Z 16007KT 23/17 A3018 RMK A01 T02270170  RH  070%=      5-min Rain = 0
KGO1 150814Z 16007KT 23/17 A3017 RMK A01 T02270170  RH  070%=      5-min Rain = 0
KGO1 150815Z 15007KT 23/17 A3017 RMK A01 T02270171  RH  070%=      5-min Rain = 0
KGO1 150816Z 15007KT 23/17 A3017 RMK A01 T02270170  RH  070%=      5-min Rain = 0
KGO1 150817Z 16007KT 23/17 A3017 RMK A01 T02270171  RH  070%=      5-min Rain = 0
KGO1 150818Z 16007KT 23/17 A3017 RMK A01 T02270171  RH  070%=      5-min Rain = 0
KGO1 150819Z 16006KT 23/17 A3017 RMK A01 T02270171  RH  071%=      5-min Rain = 0
KGO1 150820Z 16007KT 23/17 A3017 RMK A01 T02260170  RH  071%=      5-min Rain = 0
KGO1 150821Z 16006KT 23/17 A3017 RMK A01 T02260170  RH  071%=      5-min Rain = 0
KGO1 150822Z 16006KT 23/17 A3017 RMK A01 T02260171  RH  071%=      5-min Rain = 0
KGO1 150823Z 16006KT 23/17 A3017 RMK A01 T02250170  RH  071%=      5-min Rain = 0
KGO1 150824Z 16006KT 23/17 A3017 RMK A01 T02250170  RH  071%=      5-min Rain = 0
KGO1 150825Z 16006KT 23/17 A3017 RMK A01 T02250170  RH  071%=      5-min Rain = 0
KGO1 150826Z 16007KT 23/17 A3017 RMK A01 T02250170  RH  071%=      5-min Rain = 0
KGO1 150827Z 16007KT 23/17 A3017 RMK A01 T02250170  RH  071%=      5-min Rain = 0
KGO1 150828Z 16007KT 23/17 A3017 RMK A01 T02250170  RH  071%=      5-min Rain = 0
KGO1 150829Z 16007KT 23/17 A3017 RMK A01 T02250170  RH  071%=      5-min Rain = 0
KGO1 150830Z 16007KT 23/17 A3017 RMK A01 T02250170  RH  071%=      5-min Rain = 0
KGO1 150831Z 16007KT 23/17 A3017 RMK A01 T02250170  RH  071%=      5-min Rain = 0
KGO1 150832Z 16007KT 23/17 A3017 RMK A01 T02250171  RH  071%=      5-min Rain = 0
KGO1 150833Z 16008KT 23/17 A3017 RMK A01 T02250171  RH  071%=      5-min Rain = 0
KGO1 150834Z 17007KT 23/17 A3017 RMK A01 T02250171  RH  071%=      5-min Rain = 0
KGO1 150835Z 17008KT 23/17 A3017 RMK A01 T02260171  RH  071%=      5-min Rain = 0
KGO1 150836Z 17007KT 23/17 A3017 RMK A01 T02260171  RH  071%=      5-min Rain = 0
KGO1 150837Z 17008KT 23/17 A3017 RMK A01 T02270171  RH  071%=      5-min Rain = 0
KGO1 150838Z 17008KT 23/17 A3017 RMK A01 T02270171  RH  071%=      5-min Rain = 0
KGO1 150839Z 17008KT 23/17 A3016 RMK A01 T02270171  RH  071%=      5-min Rain = 0
KGO1 150840Z 17008KT 23/17 A3016 RMK A01 T02270171  RH  071%=      5-min Rain = 0
KGO1 150841Z 17009KT 23/17 A3016 RMK A01 T02270172  RH  071%=      5-min Rain = 0
KGO1 150842Z 18009KT 23/17 A3016 RMK A01 T02270172  RH  071%=      5-min Rain = 0
KGO1 150843Z 17009KT 23/17 A3016 RMK A01 T02280172  RH  071%=      5-min Rain = 0
KGO1 150844Z 17009KT 23/17 A3016 RMK A01 T02280172  RH  071%=      5-min Rain = 0
KGO1 150845Z 17009KT 23/17 A3016 RMK A01 T02280172  RH  071%=      5-min Rain = 0
KGO1 150846Z 17009KT 23/17 A3016 RMK A01 T02270172  RH  071%=      5-min Rain = 0
KGO1 150847Z 17009KT 23/17 A3015 RMK A01 T02270172  RH  071%=      5-min Rain = 0
KGO1 150848Z 17009KT 23/17 A3015 RMK A01 T02280173  RH  071%=      5-min Rain = 0
KGO1 150849Z 18009KT 23/17 A3015 RMK A01 T02280172  RH  071%=      5-min Rain = 0
KGO1 150850Z 18009KT 23/17 A3015 RMK A01 T02270172  RH  071%=      5-min Rain = 0
KGO1 150851Z 18009KT 23/17 A3015 RMK A01 T02270172  RH  071%=      5-min Rain = 0
KGO1 150852Z 18009KT 23/17 A3015 RMK A01 T02270172  RH  071%=      5-min Rain = 0
KGO1 150853Z 18009KT 23/17 A3015 RMK A01 T02260172  RH  071%=      5-min Rain = 0
KGO1 150854Z 18008KT 23/17 A3015 RMK A01 T02260171  RH  071%=      5-min Rain = 0
KGO1 150855Z 18008KT 23/17 A3015 RMK A01 T02250171  RH  072%=      5-min Rain = 0
KGO1 150856Z 18008KT 23/17 A3015 RMK A01 T02250171  RH  072%=      5-min Rain = 0
KGO1 150857Z 17007KT 22/17 A3015 RMK A01 T02240171  RH  072%=      5-min Rain = 0
KGO1 150858Z 17007KT 22/17 A3015 RMK A01 T02240171  RH  072%=      5-min Rain = 0
KGO1 150859Z 17007KT 22/17 A3015 RMK A01 T02240171  RH  072%=      5-min Rain = 0
KGO1 150900Z 17007KT 22/17 A3015 RMK A01 T02240170  RH  072%=      5-min Rain = 0
KGO1 150901Z 17006KT 22/17 A3016 RMK A01 T02240170  RH  072%=      5-min Rain = 0
KGO1 150902Z 17006KT 23/17 A3016 RMK A01 T02250171  RH  072%=      5-min Rain = 0
KGO1 150903Z 17005KT 23/17 A3016 RMK A01 T02250171  RH  072%=      5-min Rain = 0
KGO1 150904Z 17005KT 23/17 A3016 RMK A01 T02250171  RH  072%=      5-min Rain = 0
KGO1 150905Z 17005KT 22/17 A3016 RMK A01 T02240171  RH  072%=      5-min Rain = 0
KGO1 150906Z 17005KT 22/17 A3016 RMK A01 T02240171  RH  072%=      5-min Rain = 0
KGO1 150907Z 17005KT 22/17 A3016 RMK A01 T02230171  RH  072%=      5-min Rain = 0
KGO1 150908Z 17006KT 22/17 A3016 RMK A01 T02230171  RH  072%=      5-min Rain = 0
KGO1 150909Z 17005KT 22/17 A3016 RMK A01 T02240171  RH  072%=      5-min Rain = 0
KGO1 150910Z 18005KT 22/17 A3016 RMK A01 T02230171  RH  072%=      5-min Rain = 0
KGO1 150911Z 18005KT 22/17 A3016 RMK A01 T02230171  RH  072%=      5-min Rain = 0
KGO1 150912Z 18005KT 22/17 A3016 RMK A01 T02230171  RH  072%=      5-min Rain = 0
KGO1 150913Z 18005KT 22/17 A3016 RMK A01 T02230171  RH  073%=      5-min Rain = 0
KGO1 150914Z 19006KT 22/17 A3016 RMK A01 T02230172  RH  073%=      5-min Rain = 0
KGO1 150915Z 19006KT 22/17 A3016 RMK A01 T02230172  RH  073%=      5-min Rain = 0
KGO1 150916Z 19006KT 22/17 A3016 RMK A01 T02240172  RH  073%=      5-min Rain = 0
KGO1 150917Z 19006KT 22/17 A3016 RMK A01 T02240172  RH  073%=      5-min Rain = 0
KGO1 150918Z 19006KT 22/17 A3016 RMK A01 T02240172  RH  073%=      5-min Rain = 0
KGO1 150919Z 19006KT 22/17 A3016 RMK A01 T02240173  RH  073%=      5-min Rain = 0
KGO1 150920Z 19006KT 22/17 A3016 RMK A01 T02240173  RH  073%=      5-min Rain = 0
KGO1 150921Z 19006KT 22/17 A3016 RMK A01 T02240173  RH  073%=      5-min Rain = 0
KGO1 150922Z 19006KT 23/17 A3016 RMK A01 T02250174  RH  073%=      5-min Rain = 0
KGO1 150923Z 19005KT 23/17 A3016 RMK A01 T02250174  RH  073%=      5-min Rain = 0
KGO1 150924Z 19005KT 23/17 A3016 RMK A01 T02250174  RH  073%=      5-min Rain = 0
KGO1 150925Z 18006KT 23/17 A3016 RMK A01 T02250174  RH  073%=      5-min Rain = 0
KGO1 150926Z 18005KT 23/18 A3016 RMK A01 T02250175  RH  073%=      5-min Rain = 0
KGO1 150927Z 18005KT 23/18 A3017 RMK A01 T02260175  RH  073%=      5-min Rain = 0
KGO1 150928Z 18005KT 23/18 A3017 RMK A01 T02250175  RH  073%=      5-min Rain = 0
KGO1 150929Z 19004KT 23/18 A3017 RMK A01 T02260175  RH  073%=      5-min Rain = 0
KGO1 150930Z 18004KT 23/18 A3017 RMK A01 T02260175  RH  073%=      5-min Rain = 0
KGO1 150931Z 19004KT 23/18 A3017 RMK A01 T02260176  RH  073%=      5-min Rain = 0
KGO1 150932Z 19004KT 23/18 A3017 RMK A01 T02260176  RH  073%=      5-min Rain = 0
KGO1 150933Z 18004KT 23/18 A3017 RMK A01 T02260176  RH  073%=      5-min Rain = 0
KGO1 150934Z 18004KT 23/18 A3017 RMK A01 T02260176  RH  073%=      5-min Rain = 0
KGO1 150935Z 18004KT 23/18 A3017 RMK A01 T02250176  RH  074%=      5-min Rain = 0
KGO1 150936Z 17003KT 23/18 A3017 RMK A01 T02250175  RH  074%=      5-min Rain = 0
KGO1 150937Z 17003KT 22/18 A3017 RMK A01 T02240175  RH  074%=      5-min Rain = 0
KGO1 150938Z 17003KT 22/18 A3017 RMK A01 T02240175  RH  074%=      5-min Rain = 0
KGO1 150939Z 16003KT 22/18 A3017 RMK A01 T02240175  RH  074%=      5-min Rain = 0
KGO1 150940Z 16003KT 22/18 A3017 RMK A01 T02230175  RH  074%=      5-min Rain = 0
KGO1 150941Z 16003KT 22/18 A3017 RMK A01 T02230175  RH  074%=      5-min Rain = 0
KGO1 150942Z 16003KT 22/18 A3017 RMK A01 T02220175  RH  075%=      5-min Rain = 0
KGO1 150943Z 16002KT 22/18 A3017 RMK A01 T02220175  RH  075%=      5-min Rain = 0
KGO1 150944Z 16002KT 22/18 A3017 RMK A01 T02210175  RH  075%=      5-min Rain = 0
KGO1 150945Z 15002KT 22/18 A3017 RMK A01 T02210175  RH  075%=      5-min Rain = 0
KGO1 150946Z 15002KT 22/18 A3017 RMK A01 T02210175  RH  075%=      5-min Rain = 0
KGO1 150947Z 15002KT 22/18 A3017 RMK A01 T02210176  RH  075%=      5-min Rain = 0
KGO1 150948Z 16002KT 22/18 A3017 RMK A01 T02200175  RH  076%=      5-min Rain = 0
KGO1 150949Z 16001KT 22/18 A3017 RMK A01 T02200175  RH  076%=      5-min Rain = 0
KGO1 150950Z 16001KT 22/18 A3017 RMK A01 T02200175  RH  075%=      5-min Rain = 0
KGO1 150951Z 17002KT 22/18 A3017 RMK A01 T02210176  RH  075%=      5-min Rain = 0
KGO1 150952Z 16002KT 22/18 A3017 RMK A01 T02210175  RH  075%=      5-min Rain = 0
KGO1 150953Z 16002KT 22/17 A3017 RMK A01 T02210174  RH  075%=      5-min Rain = 0
KGO1 150954Z 16002KT 22/18 A3017 RMK A01 T02220175  RH  075%=      5-min Rain = 0
KGO1 150955Z 16002KT 22/18 A3017 RMK A01 T02220175  RH  075%=      5-min Rain = 0
KGO1 150956Z 17002KT 22/18 A3017 RMK A01 T02220175  RH  075%=      5-min Rain = 0
KGO1 150957Z 17002KT 22/18 A3017 RMK A01 T02220176  RH  075%=      5-min Rain = 0
KGO1 150958Z 17002KT 22/18 A3017 RMK A01 T02220175  RH  075%=      5-min Rain = 0
KGO1 150959Z 18002KT 22/18 A3017 RMK A01 T02220175  RH  075%=      5-min Rain = 0
KGO1 151000Z 17002KT 22/18 A3017 RMK A01 T02210175  RH  075%=      5-min Rain = 0
KGO1 151001Z 17002KT 22/18 A3017 RMK A01 T02210176  RH  075%=      5-min Rain = 0
KGO1 151002Z 18002KT 22/18 A3017 RMK A01 T02220177  RH  075%=      5-min Rain = 0
KGO1 151003Z 18002KT 22/18 A3017 RMK A01 T02230177  RH  075%=      5-min Rain = 0
KGO1 151004Z 19002KT 22/18 A3017 RMK A01 T02230177  RH  075%=      5-min Rain = 0
KGO1 151005Z 19002KT 22/18 A3018 RMK A01 T02240177  RH  075%=      5-min Rain = 0
KGO1 151006Z 19002KT 23/18 A3018 RMK A01 T02250177  RH  074%=      5-min Rain = 0
KGO1 151007Z 19002KT 23/18 A3018 RMK A01 T02250177  RH  074%=      5-min Rain = 0
KGO1 151008Z 17001KT 23/18 A3018 RMK A01 T02250177  RH  074%=      5-min Rain = 0
KGO1 151009Z 16001KT 23/18 A3018 RMK A01 T02250177  RH  074%=      5-min Rain = 0
KGO1 151010Z 15002KT 23/18 A3018 RMK A01 T02260177  RH  074%=      5-min Rain = 0
KGO1 151011Z 14002KT 23/18 A3018 RMK A01 T02270178  RH  074%=      5-min Rain = 0
KGO1 151012Z 13003KT 23/18 A3018 RMK A01 T02270179  RH  074%=      5-min Rain = 0
KGO1 151013Z 12003KT 23/18 A3018 RMK A01 T02270181  RH  075%=      5-min Rain = 0
KGO1 151014Z 12003KT 23/18 A3018 RMK A01 T02260182  RH  076%=      5-min Rain = 0
KGO1 151015Z 12003KT 22/18 A3018 RMK A01 T02240182  RH  077%=      5-min Rain = 0
KGO1 151016Z 13003KT 22/18 A3018 RMK A01 T02240183  RH  078%=      5-min Rain = 0
KGO1 151017Z 13003KT 22/18 A3018 RMK A01 T02230182  RH  078%=      5-min Rain = 0
KGO1 151018Z 13003KT 22/18 A3018 RMK A01 T02220183  RH  078%=      5-min Rain = 0
KGO1 151019Z 14003KT 22/18 A3018 RMK A01 T02210182  RH  078%=      5-min Rain = 0
KGO1 151020Z 14003KT 22/18 A3018 RMK A01 T02210182  RH  078%=      5-min Rain = 0
KGO1 151021Z 14002KT 22/18 A3018 RMK A01 T02210182  RH  079%=      5-min Rain = 0
KGO1 151022Z 15003KT 22/18 A3018 RMK A01 T02210182  RH  079%=      5-min Rain = 0
KGO1 151023Z 13002KT 22/18 A3018 RMK A01 T02200182  RH  079%=      5-min Rain = 0
KGO1 151024Z 13002KT 22/18 A3018 RMK A01 T02200182  RH  079%=      5-min Rain = 0
KGO1 151025Z 14002KT 22/18 A3018 RMK A01 T02200181  RH  079%=      5-min Rain = 0
KGO1 151026Z 15002KT 22/18 A3019 RMK A01 T02190181  RH  079%=      5-min Rain = 0
KGO1 151027Z 15002KT 22/18 A3019 RMK A01 T02200181  RH  079%=      5-min Rain = 0
KGO1 151028Z 15002KT 22/18 A3019 RMK A01 T02190182  RH  079%=      5-min Rain = 0
KGO1 151029Z 13002KT 22/18 A3019 RMK A01 T02200183  RH  080%=      5-min Rain = 0
KGO1 151030Z 12002KT 22/18 A3019 RMK A01 T02200183  RH  080%=      5-min Rain = 0
KGO1 151031Z 11002KT 22/18 A3019 RMK A01 T02190183  RH  080%=      5-min Rain = 0
KGO1 151032Z 09001KT 22/18 A3019 RMK A01 T02190183  RH  080%=      5-min Rain = 0
KGO1 151033Z 08001KT 22/18 A3019 RMK A01 T02190182  RH  079%=      5-min Rain = 0
KGO1 151034Z 08000KT 22/18 A3019 RMK A01 T02190181  RH  079%=      5-min Rain = 0
KGO1 151035Z 08000KT 22/18 A3019 RMK A01 T02180181  RH  079%=      5-min Rain = 0
KGO1 151036Z 08001KT 22/18 A3019 RMK A01 T02180181  RH  080%=      5-min Rain = 0
KGO1 151037Z 08001KT 22/18 A3019 RMK A01 T02170181  RH  080%=      5-min Rain = 0
KGO1 151038Z 08002KT 22/18 A3019 RMK A01 T02170181  RH  080%=      5-min Rain = 0
KGO1 151039Z 09001KT 22/18 A3019 RMK A01 T02160180  RH  080%=      5-min Rain = 0
KGO1 151040Z 09001KT 22/18 A3019 RMK A01 T02160180  RH  080%=      5-min Rain = 0
KGO1 151041Z 09001KT 22/18 A3019 RMK A01 T02160180  RH  080%=      5-min Rain = 0
KGO1 151042Z 08001KT 22/18 A3019 RMK A01 T02150179  RH  080%=      5-min Rain = 0
KGO1 151043Z 09000KT 21/18 A3019 RMK A01 T02140179  RH  080%=      5-min Rain = 0
KGO1 151044Z 00000KT 21/18 A3019 RMK A01 T02140179  RH  080%=      5-min Rain = 0
KGO1 151045Z 11001KT 21/18 A3019 RMK A01 T02140179  RH  081%=      5-min Rain = 0
KGO1 151046Z 11001KT 21/18 A3019 RMK A01 T02140179  RH  081%=      5-min Rain = 0
KGO1 151047Z 12001KT 21/18 A3019 RMK A01 T02140178  RH  080%=      5-min Rain = 0
KGO1 151048Z 13001KT 21/18 A3019 RMK A01 T02140178  RH  080%=      5-min Rain = 0
KGO1 151049Z 15001KT 21/18 A3019 RMK A01 T02140176  RH  079%=      5-min Rain = 0
KGO1 151050Z 16002KT 22/18 A3019 RMK A01 T02150176  RH  078%=      5-min Rain = 0
KGO1 151051Z 17002KT 22/18 A3018 RMK A01 T02160176  RH  078%=      5-min Rain = 0
KGO1 151052Z 17003KT 22/18 A3018 RMK A01 T02170176  RH  078%=      5-min Rain = 0
KGO1 151053Z 17003KT 22/18 A3018 RMK A01 T02170177  RH  078%=      5-min Rain = 0
KGO1 151054Z 17003KT 22/18 A3018 RMK A01 T02170178  RH  079%=      5-min Rain = 0
KGO1 151055Z 17004KT 22/18 A3018 RMK A01 T02160178  RH  079%=      5-min Rain = 0
KGO1 151056Z 17004KT 22/18 A3018 RMK A01 T02150179  RH  080%=      5-min Rain = 0
KGO1 151057Z 17004KT 21/18 A3018 RMK A01 T02130179  RH  081%=      5-min Rain = 0
KGO1 151058Z 17005KT 21/18 A3018 RMK A01 T02120179  RH  081%=      5-min Rain = 0
KGO1 151059Z 17005KT 21/18 A3018 RMK A01 T02110179  RH  082%=      5-min Rain = 0
KGO1 151100Z 17005KT 21/18 A3018 RMK A01 T02100179  RH  082%=      5-min Rain = 0
KGO1 151101Z 16005KT 21/18 A3017 RMK A01 T02100179  RH  082%=      5-min Rain = 0
KGO1 151102Z 16004KT 21/18 A3017 RMK A01 T02100179  RH  082%=      5-min Rain = 0
KGO1 151103Z 17004KT 21/18 A3017 RMK A01 T02100179  RH  082%=      5-min Rain = 0
KGO1 151104Z 17004KT 21/18 A3017 RMK A01 T02100179  RH  082%=      5-min Rain = 0
KGO1 151105Z 17004KT 21/18 A3018 RMK A01 T02100179  RH  083%=      5-min Rain = 0
KGO1 151106Z 18004KT 21/18 A3018 RMK A01 T02090179  RH  083%=      5-min Rain = 0
KGO1 151107Z 18003KT 21/18 A3018 RMK A01 T02090180  RH  083%=      5-min Rain = 0
KGO1 151108Z 18003KT 21/18 A3018 RMK A01 T02090180  RH  084%=      5-min Rain = 0
KGO1 151109Z 18003KT 21/18 A3018 RMK A01 T02080180  RH  084%=      5-min Rain = 0
KGO1 151110Z 18003KT 21/18 A3018 RMK A01 T02080180  RH  084%=      5-min Rain = 0
KGO1 151111Z 18003KT 21/18 A3018 RMK A01 T02080180  RH  084%=      5-min Rain = 0
KGO1 151112Z 18002KT 21/18 A3018 RMK A01 T02080180  RH  084%=      5-min Rain = 0
KGO1 151113Z 19002KT 21/18 A3018 RMK A01 T02080180  RH  084%=      5-min Rain = 0
KGO1 151114Z 19002KT 21/18 A3018 RMK A01 T02070181  RH  085%=      5-min Rain = 0
KGO1 151115Z 19001KT 21/18 A3018 RMK A01 T02070181  RH  085%=      5-min Rain = 0
KGO1 151116Z 19001KT 21/18 A3018 RMK A01 T02070181  RH  085%=      5-min Rain = 0
KGO1 151117Z 20001KT 21/18 A3018 RMK A01 T02060181  RH  086%=      5-min Rain = 0
KGO1 151118Z 20001KT 21/18 A3018 RMK A01 T02060181  RH  086%=      5-min Rain = 0
KGO1 151119Z 20001KT 21/18 A3018 RMK A01 T02060181  RH  086%=      5-min Rain = 0
KGO1 151120Z 20001KT 21/18 A3018 RMK A01 T02050182  RH  086%=      5-min Rain = 0
KGO1 151121Z 20001KT 20/18 A3018 RMK A01 T02040182  RH  087%=      5-min Rain = 0
KGO1 151122Z 20000KT 20/18 A3018 RMK A01 T02040182  RH  087%=      5-min Rain = 0
KGO1 151123Z 00000KT 21/18 A3018 RMK A01 T02050183  RH  087%=      5-min Rain = 0
KGO1 151124Z 20001KT 20/18 A3018 RMK A01 T02040183  RH  087%=      5-min Rain = 0
KGO1 151125Z 20001KT 20/18 A3018 RMK A01 T02040183  RH  088%=      5-min Rain = 0
KGO1 151126Z 20001KT 20/18 A3018 RMK A01 T02040183  RH  088%=      5-min Rain = 0
KGO1 151127Z 20002KT 20/18 A3018 RMK A01 T02040183  RH  088%=      5-min Rain = 0
KGO1 151128Z 20002KT 21/18 A3018 RMK A01 T02050184  RH  088%=      5-min Rain = 0
KGO1 151129Z 20002KT 21/19 A3018 RMK A01 T02060185  RH  088%=      5-min Rain = 0
KGO1 151130Z 20002KT 21/19 A3018 RMK A01 T02070188  RH  089%=      5-min Rain = 0
KGO1 151131Z 20002KT 21/19 A3018 RMK A01 T02070190  RH  090%=      5-min Rain = 0
KGO1 151132Z 21003KT 21/19 A3018 RMK A01 T02070190  RH  090%=      5-min Rain = 0
KGO1 151133Z 23003KT 21/19 A3018 RMK A01 T02070189  RH  089%=      5-min Rain = 0
KGO1 151134Z 25003KT 21/19 A3018 RMK A01 T02070189  RH  089%=      5-min Rain = 0
KGO1 151135Z 27004KT 21/19 A3019 RMK A01 T02070188  RH  088%=      5-min Rain = 0
KGO1 151136Z 29007KT 21/19 A302 RMK A01 T02080187  RH  088%=      5-min Rain = 0
KGO1 151137Z 30009KT 21/19 A302 RMK A01 T02080188  RH  088%=      5-min Rain = 0
KGO1 151138Z 31012KT 21/19 A3021 RMK A01 T02080188  RH  088%=      5-min Rain = 0
KGO1 151139Z 32015KT 21/19 A3022 RMK A01 T02110187  RH  086%=      5-min Rain = 0
KGO1 151140Z 33017G24KT 21/19 A3022 RMK A01 T02130187  RH  085%=      5-min Rain = 0
KGO1 151141Z 33023G28KT 21/17 A3022 RMK A01 T02120174  RH  079%=      5-min Rain = 0
KGO1 151142Z 33020KT 21/17 A3023 RMK A01 T02100167  RH  076%=      5-min Rain = 0
KGO1 151143Z 33016G21KT 21/17 A3023 RMK A01 T02080165  RH  077%=      5-min Rain = 0
KGO1 151144Z 34019G25KT 21/16 A3023 RMK A01 T02050163  RH  077%=      5-min Rain = 0
KGO1 151145Z 33015KT 20/16 A3023 RMK A01 T02040162  RH  077%=      5-min Rain = 0
KGO1 151146Z 33015KT 20/16 A3023 RMK A01 T02030160  RH  076%=      5-min Rain = 0
KGO1 151147Z 33018G29KT 20/16 A3023 RMK A01 T02020160  RH  077%=      5-min Rain = 0
KGO1 151148Z 33022KT 20/16 A3023 RMK A01 T02020159  RH  076%=      5-min Rain = 0
KGO1 151149Z 33018KT 20/16 A3023 RMK A01 T02020158  RH  076%=      5-min Rain = 0
KGO1 151150Z 34021KT 20/16 A3022 RMK A01 T02020158  RH  076%=      5-min Rain = 0
KGO1 151151Z 34021KT 20/16 A3023 RMK A01 T02020159  RH  076%=      5-min Rain = 0
KGO1 151152Z 34021KT 20/16 A3023 RMK A01 T02020160  RH  077%=      5-min Rain = 0
KGO1 151153Z 35020KT 20/16 A3023 RMK A01 T02020161  RH  077%=      5-min Rain = 0
KGO1 151154Z 34018G23KT 20/16 A3024 RMK A01 T02020163  RH  078%=      5-min Rain = 0
KGO1 151155Z 34022KT 20/16 A3024 RMK A01 T02020163  RH  078%=      5-min Rain = 0
KGO1 151156Z 33023G30KT 20/17 A3024 RMK A01 T02020166  RH  080%=      5-min Rain = 0
KGO1 151157Z 34020G28KT 20/17 A3024 RMK A01 T02020167  RH  081%=      5-min Rain = 0
KGO1 151158Z 34019G25KT 20/17 A3024 RMK A01 T02020169  RH  081%=      5-min Rain = 0
KGO1 151159Z 34020KT 20/17 A3024 RMK A01 T02010169  RH  082%=      5-min Rain = 0
KGO1 151200Z 34015KT 20/17 A3024 RMK A01 T02010169  RH  082%=      5-min Rain = 0
KGO1 151201Z 34015G21KT 20/17 A3024 RMK A01 T02010170  RH  082%=      5-min Rain = 0
KGO1 151202Z 34020G25KT 20/17 A3024 RMK A01 T02010170  RH  083%=      5-min Rain = 0
KGO1 151203Z 35019G26KT 20/17 A3024 RMK A01 T02010170  RH  083%=      5-min Rain = 0
KGO1 151204Z 35026KT 20/17 A3024 RMK A01 T02000168  RH  082%=      5-min Rain = 0
KGO1 151205Z 34023KT 20/17 A3025 RMK A01 T01980167  RH  082%=      5-min Rain = 0
KGO1 151206Z 34023KT 20/17 A3025 RMK A01 T01970166  RH  082%=      5-min Rain = 0
KGO1 151207Z 34020G25KT 20/17 A3025 RMK A01 T01960166  RH  082%=      5-min Rain = 0
KGO1 151208Z 35021G26KT 20/17 A3026 RMK A01 T01950165  RH  083%=      5-min Rain = 0
KGO1 151209Z 36018G23KT 19/17 A3025 RMK A01 T01940165  RH  083%=      5-min Rain = 0
KGO1 151210Z 35018G25KT 19/17 A3025 RMK A01 T01920165  RH  084%=      5-min Rain = 0
KGO1 151211Z 34020KT 19/16 A3026 RMK A01 T01910164  RH  084%=      5-min Rain = 0
KGO1 151212Z 35021G26KT 19/17 A3026 RMK A01 T01900165  RH  085%=      5-min Rain = 0
KGO1 151213Z 34018KT 19/17 A3026 RMK A01 T01890166  RH  086%=      5-min Rain = 0
KGO1 151214Z 34017KT 19/17 A3026 RMK A01 T01880166  RH  087%=      5-min Rain = 0
KGO1 151215Z 34019G25KT 19/17 A3026 RMK A01 T01870167  RH  088%=      5-min Rain = 0
KGO1 151216Z 34020KT 19/17 A3026 RMK A01 T01860167  RH  089%=      5-min Rain = 0
KGO1 151217Z 34017G23KT 19/17 A3026 RMK A01 T01850169  RH  090%=      5-min Rain = 0
KGO1 151218Z 35019KT 18/17 A3026 RMK A01 T01830170  RH  092%=      5-min Rain = 0.01
KGO1 151219Z 34017KT 18/17 A3026 RMK A01 T01800170  RH  094%=      5-min Rain = 0.03
KGO1 151220Z 35015KT 18/17 A3026 RMK A01 T01770171  RH  096%=      5-min Rain = 0.05
KGO1 151221Z 36015KT 18/17 A3027 RMK A01 T01750172  RH  098%=      5-min Rain = 0.05
KGO1 151222Z 36016KT 17/17 A3027 RMK A01 T01730172  RH  099%=      5-min Rain = 0.04
KGO1 151223Z 01016KT 17/17 A3027 RMK A01 T01720171  RH  099%=      5-min Rain = 0.04
KGO1 151224Z 00014KT 17/17 A3027 RMK A01 T01710171  RH  100%=      5-min Rain = 0.03
KGO1 151225Z 00013KT 17/17 A3027 RMK A01 T01700170  RH  100%=      5-min Rain = 0.03
KGO1 151226Z 01014KT 17/17 A3027 RMK A01 T01700170  RH  100%=      5-min Rain = 0.03
KGO1 151227Z 01013KT 17/17 A3027 RMK A01 T01700170  RH  100%=      5-min Rain = 0.03
KGO1 151228Z 01013KT 17/17 A3028 RMK A01 T01690170  RH  100%=      5-min Rain = 0.02
KGO1 151229Z 01015KT 17/17 A3028 RMK A01 T01690170  RH  100%=      5-min Rain = 0.03
KGO1 151230Z 01012KT 17/17 A3028 RMK A01 T01700170  RH  100%=      5-min Rain = 0.02
KGO1 151231Z 01012KT 17/17 A3028 RMK A01 T01700170  RH  100%=      5-min Rain = 0.02
KGO1 151232Z 01012KT 17/17 A3028 RMK A01 T01700170  RH  100%=      5-min Rain = 0.02
KGO1 151233Z 00009KT 17/17 A3028 RMK A01 T01700170  RH  100%=      5-min Rain = 0.01
KGO1 151234Z 00008KT 17/17 A3028 RMK A01 T01700170  RH  100%=      5-min Rain = 0.01
KGO1 151235Z 35008KT 17/17 A3028 RMK A01 T01700170  RH  100%=      5-min Rain = 0.01
KGO1 151236Z 34007KT 17/17 A3028 RMK A01 T01700170  RH  100%=      5-min Rain = 0.02
KGO1 151237Z 36008KT 17/17 A3028 RMK A01 T01700170  RH  100%=      5-min Rain = 0.03
KGO1 151238Z 01008KT 17/17 A3027 RMK A01 T01700170  RH  100%=      5-min Rain = 0.03
KGO1 151239Z 01009KT 17/17 A3027 RMK A01 T01700170  RH  100%=      5-min Rain = 0.03
KGO1 151240Z 01010KT 17/17 A3026 RMK A01 T01700170  RH  100%=      5-min Rain = 0.02
KGO1 151241Z 01010KT 17/17 A3026 RMK A01 T01700170  RH  100%=      5-min Rain = 0.03
KGO1 151242Z 02010KT 17/17 A3026 RMK A01 T01700170  RH  100%=      5-min Rain = 0.02
KGO1 151243Z 03011KT 17/17 A3025 RMK A01 T01700170  RH  100%=      5-min Rain = 0.03
KGO1 151244Z 03010KT 17/17 A3025 RMK A01 T01710171  RH  100%=      5-min Rain = 0.02
KGO1 151245Z 03009KT 17/17 A3025 RMK A01 T01710171  RH  100%=      5-min Rain = 0.02
KGO1 151246Z 02010KT 17/17 A3025 RMK A01 T01710170  RH  099%=      5-min Rain = 0.02
KGO1 151247Z 01008KT 17/17 A3026 RMK A01 T01710170  RH  099%=      5-min Rain = 0.01
KGO1 151248Z 35007KT 17/17 A3026 RMK A01 T01710170  RH  099%=      5-min Rain = 0
KGO1 151249Z 33007KT 17/17 A3026 RMK A01 T01710170  RH  100%=      5-min Rain = 0.01
KGO1 151250Z 32008KT 17/17 A3027 RMK A01 T01710171  RH  100%=      5-min Rain = 0
KGO1 151251Z 32008KT 17/17 A3027 RMK A01 T01710171  RH  100%=      5-min Rain = 0
KGO1 151252Z 32006KT 17/17 A3027 RMK A01 T01710171  RH  100%=      5-min Rain = 0
KGO1 151253Z 33006KT 17/17 A3027 RMK A01 T01710171  RH  100%=      5-min Rain = 0
KGO1 151254Z 33006KT 17/17 A3027 RMK A01 T01710171  RH  100%=      5-min Rain = 0
KGO1 151255Z 33005KT 17/17 A3026 RMK A01 T01710171  RH  100%=      5-min Rain = 0
KGO1 151256Z 34006KT 17/17 A3026 RMK A01 T01710171  RH  100%=      5-min Rain = 0
KGO1 151257Z 34007KT 17/17 A3026 RMK A01 T01710171  RH  100%=      5-min Rain = 0
KGO1 151258Z 35007KT 17/17 A3026 RMK A01 T01710171  RH  100%=      5-min Rain = 0
KGO1 151259Z 36006KT 17/17 A3025 RMK A01 T01710171  RH  100%=      5-min Rain = 0
KGO1 151300Z 00006KT 17/17 A3025 RMK A01 T01710171  RH  100%=      5-min Rain = 0
KGO1 151301Z 00007KT 17/17 A3025 RMK A01 T01710171  RH  100%=      5-min Rain = 0
KGO1 151302Z 35007KT 17/17 A3025 RMK A01 T01720171  RH  100%=      5-min Rain = 0
KGO1 151303Z 35006KT 17/17 A3025 RMK A01 T01720171  RH  099%=      5-min Rain = 0
KGO1 151304Z 35005KT 17/17 A3025 RMK A01 T01730171  RH  099%=      5-min Rain = 0
KGO1 151305Z 35004KT 17/17 A3025 RMK A01 T01730171  RH  099%=      5-min Rain = 0
KGO1 151306Z 34003KT 17/17 A3024 RMK A01 T01730171  RH  099%=      5-min Rain = 0
KGO1 151307Z 36002KT 17/17 A3024 RMK A01 T01730171  RH  099%=      5-min Rain = 0
KGO1 151308Z 35002KT 17/17 A3024 RMK A01 T01730171  RH  099%=      5-min Rain = 0
KGO1 151309Z 35002KT 17/17 A3024 RMK A01 T01720171  RH  099%=      5-min Rain = 0
KGO1 151310Z 00002KT 17/17 A3024 RMK A01 T01720171  RH  099%=      5-min Rain = 0.01
KGO1 151311Z 02002KT 17/17 A3024 RMK A01 T01720171  RH  099%=      5-min Rain = 0
KGO1 151312Z 02003KT 17/17 A3024 RMK A01 T01720170  RH  099%=      5-min Rain = 0
KGO1 151313Z 03003KT 17/17 A3024 RMK A01 T01720170  RH  099%=      5-min Rain = 0
KGO1 151314Z 04003KT 17/17 A3023 RMK A01 T01730170  RH  098%=      5-min Rain = 0
KGO1 151315Z 05003KT 17/17 A3023 RMK A01 T01730171  RH  099%=      5-min Rain = 0
KGO1 151316Z 06004KT 17/17 A3023 RMK A01 T01730172  RH  099%=      5-min Rain = 0
KGO1 151317Z 06004KT 17/17 A3023 RMK A01 T01730173  RH  099%=      5-min Rain = 0
KGO1 151318Z 07005KT 17/17 A3022 RMK A01 T01740173  RH  099%=      5-min Rain = 0
KGO1 151319Z 08005KT 17/17 A3022 RMK A01 T01740173  RH  099%=      5-min Rain = 0
KGO1 151320Z 08004KT 17/17 A3022 RMK A01 T01740172  RH  099%=      5-min Rain = 0
KGO1 151321Z 09004KT 18/17 A3022 RMK A01 T01750172  RH  098%=      5-min Rain = 0
KGO1 151322Z 07007KT 18/17 A3022 RMK A01 T01750173  RH  099%=      5-min Rain = 0
KGO1 151323Z 06010KT 18/17 A3022 RMK A01 T01760173  RH  098%=      5-min Rain = 0
KGO1 151324Z 05009KT 18/17 A3022 RMK A01 T01760174  RH  099%=      5-min Rain = 0
KGO1 151325Z 05008KT 18/17 A3022 RMK A01 T01770174  RH  098%=      5-min Rain = 0
KGO1 151326Z 05007KT 18/17 A3022 RMK A01 T01780173  RH  097%=      5-min Rain = 0
KGO1 151327Z 04006KT 18/18 A3022 RMK A01 T01780175  RH  098%=      5-min Rain = 0
KGO1 151328Z 04005KT 18/18 A3022 RMK A01 T01780175  RH  098%=      5-min Rain = 0
KGO1 151329Z 04005KT 18/17 A3022 RMK A01 T01780174  RH  097%=      5-min Rain = 0
KGO1 151330Z 05004KT 18/17 A3022 RMK A01 T01780172  RH  096%=      5-min Rain = 0
KGO1 151331Z 06004KT 18/17 A3022 RMK A01 T01780172  RH  096%=      5-min Rain = 0
KGO1 151332Z 06003KT 18/17 A3021 RMK A01 T01780171  RH  096%=      5-min Rain = 0
KGO1 151333Z 06003KT 18/17 A3021 RMK A01 T01780170  RH  095%=      5-min Rain = 0
KGO1 151334Z 08003KT 18/17 A3021 RMK A01 T01780169  RH  094%=      5-min Rain = 0
KGO1 151335Z 08003KT 18/17 A3021 RMK A01 T01790169  RH  094%=      5-min Rain = 0
KGO1 151336Z 09003KT 18/17 A3021 RMK A01 T01790168  RH  093%=      5-min Rain = 0
KGO1 151337Z 09003KT 18/17 A3021 RMK A01 T01800169  RH  093%=      5-min Rain = 0
KGO1 151338Z 09003KT 18/17 A3021 RMK A01 T01800168  RH  093%=      5-min Rain = 0
KGO1 151339Z 10002KT 18/17 A3021 RMK A01 T01800169  RH  093%=      5-min Rain = 0
KGO1 151340Z 11002KT 18/17 A3021 RMK A01 T01800171  RH  094%=      5-min Rain = 0
KGO1 151341Z 10001KT 18/17 A3021 RMK A01 T01800170  RH  094%=      5-min Rain = 0
KGO1 151342Z 10001KT 18/17 A3021 RMK A01 T01800171  RH  094%=      5-min Rain = 0
KGO1 151343Z 09000KT 18/17 A3021 RMK A01 T01790173  RH  096%=      5-min Rain = 0
KGO1 151344Z 11000KT 18/17 A3021 RMK A01 T01780173  RH  097%=      5-min Rain = 0
KGO1 151345Z 10000KT 18/17 A3021 RMK A01 T01780173  RH  097%=      5-min Rain = 0
KGO1 151346Z 11002KT 18/17 A3021 RMK A01 T01770172  RH  096%=      5-min Rain = 0
KGO1 151347Z 10002KT 18/17 A3021 RMK A01 T01780170  RH  095%=      5-min Rain = 0
KGO1 151348Z 11003KT 18/17 A3021 RMK A01 T01800169  RH  094%=      5-min Rain = 0
KGO1 151349Z 12003KT 18/17 A3021 RMK A01 T01810171  RH  094%=      5-min Rain = 0.01
KGO1 151350Z 13003KT 18/17 A302 RMK A01 T01820172  RH  094%=      5-min Rain = 0
KGO1 151351Z 15003KT 18/17 A302 RMK A01 T01820174  RH  095%=      5-min Rain = 0
KGO1 151352Z 16003KT 18/18 A302 RMK A01 T01820175  RH  096%=      5-min Rain = 0
KGO1 151353Z 18005KT 18/18 A302 RMK A01 T01820177  RH  096%=      5-min Rain = 0
KGO1 151354Z 20007KT 18/18 A302 RMK A01 T01830178  RH  097%=      5-min Rain = 0
KGO1 151355Z 20006KT 18/18 A302 RMK A01 T01830178  RH  097%=      5-min Rain = 0
KGO1 151356Z 20006KT 18/18 A302 RMK A01 T01830178  RH  097%=      5-min Rain = 0
KGO1 151357Z 21007KT 18/18 A302 RMK A01 T01830177  RH  096%=      5-min Rain = 0
KGO1 151358Z 21007KT 18/18 A302 RMK A01 T01840177  RH  096%=      5-min Rain = 0
KGO1 151359Z 20006KT 18/18 A302 RMK A01 T01840178  RH  096%=      5-min Rain = 0
KGO1 151400Z 19008KT 18/18 A302 RMK A01 T01840178  RH  096%=      5-min Rain = 0
KGO1 151401Z 19009KT 18/18 A302 RMK A01 T01840178  RH  096%=      5-min Rain = 0
KGO1 151402Z 19008KT 18/18 A302 RMK A01 T01840177  RH  095%=      5-min Rain = 0
KGO1 151403Z 18008KT 19/18 A302 RMK A01 T01850178  RH  096%=      5-min Rain = 0
KGO1 151404Z 18008KT 19/18 A302 RMK A01 T01850180  RH  096%=      5-min Rain = 0
KGO1 151405Z 18008KT 19/18 A302 RMK A01 T01850179  RH  096%=      5-min Rain = 0
KGO1 151406Z 18009KT 19/18 A302 RMK A01 T01860179  RH  096%=      5-min Rain = 0
KGO1 151407Z 18010KT 19/18 A302 RMK A01 T01860179  RH  095%=      5-min Rain = 0
KGO1 151408Z 18011KT 19/18 A302 RMK A01 T01870180  RH  096%=      5-min Rain = 0
KGO1 151409Z 18013KT 19/18 A302 RMK A01 T01890182  RH  096%=      5-min Rain = 0
KGO1 151410Z 18013KT 19/18 A302 RMK A01 T01890181  RH  095%=      5-min Rain = 0
KGO1 151411Z 18013KT 19/18 A302 RMK A01 T01890181  RH  095%=      5-min Rain = 0
KGO1 151412Z 18011KT 19/18 A302 RMK A01 T01890180  RH  095%=      5-min Rain = 0
KGO1 151413Z 19010KT 19/18 A302 RMK A01 T01880181  RH  095%=      5-min Rain = 0
KGO1 151414Z 19011KT 19/18 A302 RMK A01 T01880179  RH  094%=      5-min Rain = 0
KGO1 151415Z 20010KT 19/18 A302 RMK A01 T01870178  RH  094%=      5-min Rain = 0
KGO1 151416Z 20009KT 19/18 A3019 RMK A01 T01880178  RH  094%=      5-min Rain = 0
KGO1 151417Z 20009KT 19/18 A3019 RMK A01 T01880178  RH  094%=      5-min Rain = 0
KGO1 151418Z 20008KT 19/18 A3019 RMK A01 T01880177  RH  094%=      5-min Rain = 0
KGO1 151419Z 20008KT 19/18 A3019 RMK A01 T01880180  RH  095%=      5-min Rain = 0
KGO1 151420Z 20008KT 19/18 A3019 RMK A01 T01880178  RH  094%=      5-min Rain = 0
KGO1 151421Z 21008KT 19/18 A3019 RMK A01 T01880178  RH  094%=      5-min Rain = 0
KGO1 151422Z 21009KT 19/18 A3019 RMK A01 T01880177  RH  093%=      5-min Rain = 0
KGO1 151423Z 21009KT 19/18 A3019 RMK A01 T01880176  RH  093%=      5-min Rain = 0
KGO1 151424Z 21009KT 19/18 A3019 RMK A01 T01880175  RH  092%=      5-min Rain = 0
KGO1 151425Z 22008KT 19/18 A3019 RMK A01 T01880176  RH  093%=      5-min Rain = 0
KGO1 151426Z 21009KT 19/18 A3018 RMK A01 T01890178  RH  093%=      5-min Rain = 0
KGO1 151427Z 22008KT 19/18 A3018 RMK A01 T01900177  RH  093%=      5-min Rain = 0
KGO1 151428Z 21008KT 19/18 A3018 RMK A01 T01910177  RH  092%=      5-min Rain = 0
KGO1 151429Z 22008KT 19/18 A3018 RMK A01 T01920178  RH  092%=      5-min Rain = 0
KGO1 151430Z 22008KT 19/18 A3018 RMK A01 T01930181  RH  092%=      5-min Rain = 0
KGO1 151431Z 22007KT 20/18 A3018 RMK A01 T01950180  RH  091%=      5-min Rain = 0
KGO1 151432Z 22007KT 20/18 A3018 RMK A01 T01970182  RH  091%=      5-min Rain = 0
KGO1 151433Z 23007KT 20/18 A3018 RMK A01 T01990181  RH  089%=      5-min Rain = 0
KGO1 151434Z 22007KT 20/18 A3018 RMK A01 T02000182  RH  089%=      5-min Rain = 0
KGO1 151435Z 21007KT 20/18 A3018 RMK A01 T02020180  RH  087%=      5-min Rain = 0
KGO1 151436Z 19007KT 20/18 A3018 RMK A01 T02030179  RH  086%=      5-min Rain = 0
KGO1 151437Z 18008KT 21/18 A3018 RMK A01 T02050182  RH  087%=      5-min Rain = 0
KGO1 151438Z 19009KT 21/18 A3018 RMK A01 T02070182  RH  085%=      5-min Rain = 0
KGO1 151439Z 20010KT 21/18 A3018 RMK A01 T02090184  RH  085%=      5-min Rain = 0
KGO1 151440Z 20011KT 21/18 A3018 RMK A01 T02100180  RH  083%=      5-min Rain = 0
KGO1 151441Z 20011KT 21/18 A3018 RMK A01 T02110176  RH  081%=      5-min Rain = 0
KGO1 151442Z 20009KT 21/18 A3017 RMK A01 T02120177  RH  080%=      5-min Rain = 0
KGO1 151443Z 20009KT 21/18 A3017 RMK A01 T02130177  RH  080%=      5-min Rain = 0
KGO1 151444Z 20007KT 21/18 A3017 RMK A01 T02140182  RH  082%=      5-min Rain = 0
KGO1 151445Z 20008KT 22/18 A3017 RMK A01 T02150181  RH  081%=      5-min Rain = 0
KGO1 151446Z 20008KT 22/18 A3017 RMK A01 T02160180  RH  080%=      5-min Rain = 0
KGO1 151447Z 20008KT 22/18 A3017 RMK A01 T02170181  RH  080%=      5-min Rain = 0
KGO1 151448Z 20006KT 22/18 A3017 RMK A01 T02180183  RH  080%=      5-min Rain = 0
KGO1 151449Z 20006KT 22/18 A3017 RMK A01 T02190183  RH  080%=      5-min Rain = 0
KGO1 151450Z 20005KT 22/18 A3017 RMK A01 T02200182  RH  079%=      5-min Rain = 0
KGO1 151451Z 21005KT 22/19 A3017 RMK A01 T02220185  RH  079%=      5-min Rain = 0
KGO1 151452Z 21005KT 22/18 A3017 RMK A01 T02240183  RH  078%=      5-min Rain = 0
KGO1 151453Z 21005KT 23/19 A3017 RMK A01 T02260186  RH  078%=      5-min Rain = 0
KGO1 151454Z 20005KT 23/19 A3017 RMK A01 T02280185  RH  077%=      5-min Rain = 0
KGO1 151455Z 21005KT 23/18 A3017 RMK A01 T02300181  RH  074%=      5-min Rain = 0
KGO1 151456Z 21006KT 23/18 A3017 RMK A01 T02320183  RH  074%=      5-min Rain = 0
KGO1 151457Z 22007KT 23/18 A3017 RMK A01 T02340180  RH  072%=      5-min Rain = 0
KGO1 151458Z 22007KT 24/19 A3017 RMK A01 T02360185  RH  073%=      5-min Rain = 0
KGO1 151459Z 21007KT 24/18 A3017 RMK A01 T02380184  RH  072%=      5-min Rain = 0
KGO1 151500Z 22007KT 24/18 A3017 RMK A01 T02380184  RH  071%=      5-min Rain = 0
KGO1 151501Z 22007KT 24/19 A3016 RMK A01 T02390185  RH  072%=      5-min Rain = 0
KGO1 151502Z 22007KT 24/19 A3016 RMK A01 T02400186  RH  072%=      5-min Rain = 0
KGO1 151503Z 22006KT 24/19 A3016 RMK A01 T02420190  RH  073%=      5-min Rain = 0
KGO1 151504Z 22008KT 24/19 A3016 RMK A01 T02440191  RH  072%=      5-min Rain = 0
KGO1 151505Z 22007KT 25/19 A3016 RMK A01 T02450189  RH  071%=      5-min Rain = 0
KGO1 151506Z 23006KT 25/19 A3016 RMK A01 T02470189  RH  070%=      5-min Rain = 0
KGO1 151507Z 23004KT 25/19 A3016 RMK A01 T02480193  RH  071%=      5-min Rain = 0
KGO1 151508Z 23005KT 25/19 A3016 RMK A01 T02490189  RH  069%=      5-min Rain = 0
KGO1 151509Z 22005KT 25/19 A3016 RMK A01 T02500191  RH  070%=      5-min Rain = 0
KGO1 151510Z 22006KT 25/19 A3016 RMK A01 T02520191  RH  069%=      5-min Rain = 0
KGO1 151511Z 22006KT 25/19 A3015 RMK A01 T02540188  RH  067%=      5-min Rain = 0
KGO1 151512Z 22006KT 26/19 A3015 RMK A01 T02560187  RH  066%=      5-min Rain = 0
KGO1 151513Z 22007KT 26/19 A3015 RMK A01 T02570185  RH  064%=      5-min Rain = 0
KGO1 151514Z 23006KT 26/18 A3015 RMK A01 T02580184  RH  063%=      5-min Rain = 0
KGO1 151515Z 23005KT 26/18 A3015 RMK A01 T02580184  RH  064%=      5-min Rain = 0
KGO1 151516Z 22005KT 26/19 A3015 RMK A01 T02590190  RH  066%=      5-min Rain = 0
KGO1 151517Z 22006KT 26/19 A3015 RMK A01 T02610193  RH  066%=      5-min Rain = 0
KGO1 151518Z 23007KT 26/19 A3015 RMK A01 T02630190  RH  064%=      5-min Rain = 0
KGO1 151519Z 22007KT 26/19 A3015 RMK A01 T02640190  RH  064%=      5-min Rain = 0
KGO1 151520Z 23007KT 27/20 A3015 RMK A01 T02650195  RH  065%=      5-min Rain = 0
KGO1 151521Z 23008KT 27/20 A3015 RMK A01 T02660195  RH  065%=      5-min Rain = 0
KGO1 151522Z 23006KT 27/19 A3015 RMK A01 T02670191  RH  063%=      5-min Rain = 0
KGO1 151523Z 23008KT 27/19 A3015 RMK A01 T02670193  RH  064%=      5-min Rain = 0
KGO1 151524Z 24006KT 27/19 A3015 RMK A01 T02670194  RH  064%=      5-min Rain = 0
KGO1 151525Z 24007KT 27/20 A3015 RMK A01 T02690199  RH  065%=      5-min Rain = 0
KGO1 151526Z 24009KT 27/19 A3015 RMK A01 T02700194  RH  063%=      5-min Rain = 0
KGO1 151527Z 25008KT 27/20 A3015 RMK A01 T02700196  RH  064%=      5-min Rain = 0
KGO1 151528Z 25011KT 27/19 A3015 RMK A01 T02710192  RH  062%=      5-min Rain = 0
KGO1 151529Z 25011KT 27/19 A3015 RMK A01 T02710190  RH  061%=      5-min Rain = 0
KGO1 151530Z 24010KT 27/19 A3015 RMK A01 T02700192  RH  062%=      5-min Rain = 0
KGO1 151531Z 24010KT 27/19 A3015 RMK A01 T02700189  RH  061%=      5-min Rain = 0
KGO1 151532Z 24008KT 27/20 A3015 RMK A01 T02700196  RH  064%=      5-min Rain = 0
KGO1 151533Z 23010KT 27/19 A3015 RMK A01 T02720193  RH  062%=      5-min Rain = 0
KGO1 151534Z 24009KT 27/19 A3015 RMK A01 T02720191  RH  061%=      5-min Rain = 0
KGO1 151535Z 24009KT 27/19 A3015 RMK A01 T02720185  RH  059%=      5-min Rain = 0
KGO1 151536Z 24008KT 27/19 A3015 RMK A01 T02730186  RH  059%=      5-min Rain = 0
KGO1 151537Z 23009KT 27/19 A3015 RMK A01 T02730188  RH  060%=      5-min Rain = 0
KGO1 151538Z 23009KT 28/19 A3015 RMK A01 T02750189  RH  059%=      5-min Rain = 0
KGO1 151539Z 23010KT 28/19 A3015 RMK A01 T02760190  RH  059%=      5-min Rain = 0
KGO1 151540Z 24010KT 28/19 A3015 RMK A01 T02760189  RH  059%=      5-min Rain = 0
KGO1 151541Z 23010KT 28/20 A3015 RMK A01 T02770195  RH  061%=      5-min Rain = 0
KGO1 151542Z 23009KT 28/19 A3015 RMK A01 T02800187  RH  057%=      5-min Rain = 0
KGO1 151543Z 22009KT 28/18 A3015 RMK A01 T02810184  RH  056%=      5-min Rain = 0
KGO1 151544Z 22008KT 28/19 A3015 RMK A01 T02820187  RH  056%=      5-min Rain = 0
KGO1 151545Z 21010KT 28/18 A3015 RMK A01 T02830182  RH  054%=      5-min Rain = 0
KGO1 151546Z 22011KT 28/17 A3015 RMK A01 T02840171  RH  050%=      5-min Rain = 0
KGO1 151547Z 22011KT 28/17 A3014 RMK A01 T02840165  RH  049%=      5-min Rain = 0
KGO1 151548Z 22011KT 28/17 A3014 RMK A01 T02840166  RH  049%=      5-min Rain = 0
KGO1 151549Z 21009KT 28/16 A3014 RMK A01 T02840161  RH  047%=      5-min Rain = 0
KGO1 151550Z 21011KT 29/16 A3014 RMK A01 T02860164  RH  048%=      5-min Rain = 0
KGO1 151551Z 21011KT 29/16 A3014 RMK A01 T02860156  RH  045%=      5-min Rain = 0
KGO1 151552Z 20011KT 29/16 A3014 RMK A01 T02850163  RH  048%=      5-min Rain = 0
KGO1 151553Z 21010KT 29/17 A3014 RMK A01 T02850165  RH  048%=      5-min Rain = 0
KGO1 151554Z 21009KT 29/17 A3014 RMK A01 T02850171  RH  050%=      5-min Rain = 0
KGO1 151555Z 22009KT 29/17 A3014 RMK A01 T02850174  RH  051%=      5-min Rain = 0
KGO1 151556Z 22010KT 29/18 A3015 RMK A01 T02860175  RH  051%=      5-min Rain = 0
KGO1 151557Z 21010KT 29/18 A3015 RMK A01 T02850175  RH  051%=      5-min Rain = 0
KGO1 151558Z 21011KT 28/17 A3015 RMK A01 T02840174  RH  051%=      5-min Rain = 0
KGO1 151559Z 22011KT 28/18 A3015 RMK A01 T02830175  RH  052%=      5-min Rain = 0
KGO1 151600Z 22009KT 28/18 A3015 RMK A01 T02830178  RH  053%=      5-min Rain = 0
KGO1 151601Z 23010KT 29/17 A3015 RMK A01 T02850174  RH  051%=      5-min Rain = 0
KGO1 151602Z 22011KT 29/17 A3015 RMK A01 T02850171  RH  050%=      5-min Rain = 0
KGO1 151603Z 22010KT 29/17 A3015 RMK A01 T02850173  RH  051%=      5-min Rain = 0
KGO1 151604Z 22009KT 28/17 A3015 RMK A01 T02840173  RH  051%=      5-min Rain = 0
KGO1 151605Z 21010KT 28/18 A3015 RMK A01 T02840175  RH  052%=      5-min Rain = 0
KGO1 151606Z 21009KT 28/18 A3015 RMK A01 T02840176  RH  052%=      5-min Rain = 0
KGO1 151607Z 21009KT 29/17 A3015 RMK A01 T02870173  RH  050%=      5-min Rain = 0
KGO1 151608Z 21010KT 29/18 A3015 RMK A01 T02880175  RH  050%=      5-min Rain = 0
KGO1 151609Z 22010KT 29/17 A3015 RMK A01 T02900172  RH  049%=      5-min Rain = 0
KGO1 151610Z 22010KT 29/17 A3015 RMK A01 T02910170  RH  048%=      5-min Rain = 0
KGO1 151611Z 22010KT 29/17 A3015 RMK A01 T02910166  RH  047%=      5-min Rain = 0
KGO1 151612Z 22007KT 29/17 A3015 RMK A01 T02910166  RH  047%=      5-min Rain = 0
KGO1 151613Z 22006KT 29/18 A3014 RMK A01 T02920177  RH  050%=      5-min Rain = 0
KGO1 151614Z 23008KT 29/18 A3014 RMK A01 T02940175  RH  049%=      5-min Rain = 0
KGO1 151615Z 22007KT 30/17 A3014 RMK A01 T02960168  RH  046%=      5-min Rain = 0
KGO1 151616Z 21006KT 30/18 A3014 RMK A01 T02960180  RH  050%=      5-min Rain = 0
KGO1 151617Z 21008KT 30/17 A3014 RMK A01 T02970169  RH  046%=      5-min Rain = 0
KGO1 151618Z 21006KT 30/18 A3014 RMK A01 T02970178  RH  049%=      5-min Rain = 0
KGO1 151619Z 22008KT 30/17 A3014 RMK A01 T02990174  RH  047%=      5-min Rain = 0
KGO1 151620Z 21008KT 30/16 A3014 RMK A01 T03010164  RH  044%=      5-min Rain = 0
KGO1 151621Z 22007KT 30/16 A3014 RMK A01 T03000164  RH  044%=      5-min Rain = 0
KGO1 151622Z 22007KT 30/17 A3014 RMK A01 T02980168  RH  046%=      5-min Rain = 0
KGO1 151623Z 22008KT 30/17 A3014 RMK A01 T02980170  RH  046%=      5-min Rain = 0
KGO1 151624Z 21007KT 30/17 A3014 RMK A01 T02980170  RH  046%=      5-min Rain = 0
KGO1 151625Z 24008KT 30/17 A3014 RMK A01 T02980173  RH  047%=      5-min Rain = 0
KGO1 151626Z 23011KT 30/17 A3014 RMK A01 T02980168  RH  046%=      5-min Rain = 0
KGO1 151627Z 23011KT 30/16 A3014 RMK A01 T02980162  RH  044%=      5-min Rain = 0
KGO1 151628Z 24011KT 30/17 A3014 RMK A01 T02980167  RH  045%=      5-min Rain = 0
KGO1 151629Z 23011KT 30/17 A3013 RMK A01 T02990165  RH  045%=      5-min Rain = 0
KGO1 151630Z 23010KT 30/17 A3013 RMK A01 T03000171  RH  046%=      5-min Rain = 0
KGO1 151631Z 23010KT 30/17 A3013 RMK A01 T03010172  RH  046%=      5-min Rain = 0
KGO1 151632Z 23010KT 30/17 A3013 RMK A01 T03020173  RH  046%=      5-min Rain = 0
KGO1 151633Z 23008KT 30/18 A3013 RMK A01 T03030179  RH  047%=      5-min Rain = 0
KGO1 151634Z 24010KT 31/18 A3013 RMK A01 T03050179  RH  047%=      5-min Rain = 0
KGO1 151635Z 24012KT 31/17 A3013 RMK A01 T03060173  RH  045%=      5-min Rain = 0
KGO1 151636Z 24011KT 31/17 A3013 RMK A01 T03060174  RH  045%=      5-min Rain = 0
KGO1 151637Z 23010KT 31/17 A3013 RMK A01 T03050170  RH  044%=      5-min Rain = 0
KGO1 151638Z 23009KT 31/18 A3013 RMK A01 T03060177  RH  046%=      5-min Rain = 0
KGO1 151639Z 22011KT 31/18 A3014 RMK A01 T03080177  RH  046%=      5-min Rain = 0
KGO1 151640Z 22012KT 31/17 A3014 RMK A01 T03080167  RH  043%=      5-min Rain = 0
KGO1 151641Z 22011KT 31/16 A3013 RMK A01 T03070164  RH  042%=      5-min Rain = 0
KGO1 151642Z 22011KT 31/16 A3013 RMK A01 T03050164  RH  043%=      5-min Rain = 0
KGO1 151643Z 21013KT 31/16 A3013 RMK A01 T03050163  RH  042%=      5-min Rain = 0
KGO1 151644Z 21012KT 31/16 A3013 RMK A01 T03050164  RH  042%=      5-min Rain = 0
KGO1 151645Z 21011KT 31/16 A3013 RMK A01 T03060161  RH  042%=      5-min Rain = 0
KGO1 151646Z 22011KT 31/16 A3013 RMK A01 T03060163  RH  042%=      5-min Rain = 0
KGO1 151647Z 22009KT 31/16 A3013 RMK A01 T03070160  RH  041%=      5-min Rain = 0
KGO1 151648Z 22009KT 31/17 A3013 RMK A01 T03070165  RH  043%=      5-min Rain = 0
KGO1 151649Z 22009KT 31/17 A3013 RMK A01 T03080168  RH  043%=      5-min Rain = 0
KGO1 151650Z 22010KT 31/17 A3013 RMK A01 T03110165  RH  042%=      5-min Rain = 0
KGO1 151651Z 21010KT 31/16 A3013 RMK A01 T03110162  RH  041%=      5-min Rain = 0
KGO1 151652Z 21008KT 31/17 A3013 RMK A01 T03130168  RH  042%=      5-min Rain = 0
KGO1 151653Z 21011KT 32/17 A3013 RMK A01 T03150166  RH  041%=      5-min Rain = 0
KGO1 151654Z 22011KT 32/17 A3013 RMK A01 T03150167  RH  041%=      5-min Rain = 0
KGO1 151655Z 23012KT 32/17 A3013 RMK A01 T03150168  RH  041%=      5-min Rain = 0
KGO1 151656Z 23012KT 32/17 A3013 RMK A01 T03150168  RH  041%=      5-min Rain = 0
KGO1 151657Z 24011KT 31/17 A3013 RMK A01 T03140172  RH  043%=      5-min Rain = 0
KGO1 151658Z 23012KT 31/17 A3013 RMK A01 T03130170  RH  042%=      5-min Rain = 0
KGO1 151659Z 23013KT 31/17 A3013 RMK A01 T03130173  RH  043%=      5-min Rain = 0
KGO1 151700Z 22013KT 31/17 A3013 RMK A01 T03130173  RH  043%=      5-min Rain = 0
KGO1 151701Z 22014KT 31/17 A3013 RMK A01 T03130170  RH  042%=      5-min Rain = 0
KGO1 151702Z 23012KT 31/18 A3012 RMK A01 T03110177  RH  045%=      5-min Rain = 0
KGO1 151703Z 23013KT 31/18 A3012 RMK A01 T03120176  RH  044%=      5-min Rain = 0
KGO1 151704Z 23013KT 31/18 A3012 RMK A01 T03120176  RH  044%=      5-min Rain = 0
KGO1 151705Z 23010KT 31/18 A3012 RMK A01 T03130182  RH  046%=      5-min Rain = 0
KGO1 151706Z 22011KT 32/19 A3012 RMK A01 T03160186  RH  046%=      5-min Rain = 0
KGO1 151707Z 23012KT 32/18 A3012 RMK A01 T03170181  RH  044%=      5-min Rain = 0
KGO1 151708Z 23013KT 32/18 A3012 RMK A01 T03150181  RH  045%=      5-min Rain = 0
KGO1 151709Z 22012KT 32/18 A3012 RMK A01 T03150180  RH  045%=      5-min Rain = 0
KGO1 151710Z 22011KT 31/19 A3012 RMK A01 T03130185  RH  046%=      5-min Rain = 0
KGO1 151711Z 23011KT 31/19 A3012 RMK A01 T03140187  RH  047%=      5-min Rain = 0
KGO1 151712Z 22010KT 32/19 A3012 RMK A01 T03170194  RH  048%=      5-min Rain = 0
KGO1 151713Z 23012KT 32/19 A3012 RMK A01 T03190193  RH  047%=      5-min Rain = 0
KGO1 151714Z 22014KT 32/19 A3012 RMK A01 T03200192  RH  047%=      5-min Rain = 0
KGO1 151715Z 23015KT 32/19 A3012 RMK A01 T03200186  RH  045%=      5-min Rain = 0
KGO1 151716Z 22013KT 32/19 A3012 RMK A01 T03170187  RH  046%=      5-min Rain = 0
KGO1 151717Z 22014KT 32/19 A3012 RMK A01 T03170188  RH  046%=      5-min Rain = 0
KGO1 151718Z 22014KT 32/19 A3012 RMK A01 T03180190  RH  047%=      5-min Rain = 0
KGO1 151719Z 22013KT 32/19 A3012 RMK A01 T03180191  RH  047%=      5-min Rain = 0
KGO1 151720Z 23014KT 32/19 A3012 RMK A01 T03190190  RH  047%=      5-min Rain = 0
KGO1 151721Z 23013KT 32/19 A3012 RMK A01 T03190186  RH  045%=      5-min Rain = 0
KGO1 151722Z 23014KT 32/19 A3012 RMK A01 T03170190  RH  047%=      5-min Rain = 0
KGO1 151723Z 20014KT 32/19 A3012 RMK A01 T03190194  RH  047%=      5-min Rain = 0
KGO1 151724Z 21013KT 32/19 A3012 RMK A01 T03200189  RH  046%=      5-min Rain = 0
KGO1 151725Z 21013KT 32/19 A3011 RMK A01 T03210192  RH  046%=      5-min Rain = 0
KGO1 151726Z 22013KT 32/19 A3011 RMK A01 T03210194  RH  047%=      5-min Rain = 0
KGO1 151727Z 23015KT 32/19 A3011 RMK A01 T03220192  RH  046%=      5-min Rain = 0
KGO1 151728Z 23017KT 32/19 A3011 RMK A01 T03220190  RH  046%=      5-min Rain = 0
KGO1 151729Z 22019KT 32/19 A3011 RMK A01 T03190187  RH  045%=      5-min Rain = 0
KGO1 151730Z 23017KT 32/19 A3011 RMK A01 T03170186  RH  046%=      5-min Rain = 0
KGO1 151731Z 22016KT 32/19 A3011 RMK A01 T03160187  RH  046%=      5-min Rain = 0
KGO1 151732Z 22015G21KT 32/19 A3011 RMK A01 T03160189  RH  047%=      5-min Rain = 0
KGO1 151733Z 23016KT 32/19 A3011 RMK A01 T03170190  RH  047%=      5-min Rain = 0
KGO1 151734Z 22017KT 32/19 A3011 RMK A01 T03180191  RH  047%=      5-min Rain = 0
KGO1 151735Z 22015KT 32/19 A3011 RMK A01 T03190190  RH  047%=      5-min Rain = 0
KGO1 151736Z 22015KT 32/19 A3011 RMK A01 T03190193  RH  047%=      5-min Rain = 0
KGO1 151737Z 22016KT 32/19 A3011 RMK A01 T03210192  RH  047%=      5-min Rain = 0
KGO1 151738Z 22017KT 32/19 A3011 RMK A01 T03210191  RH  046%=      5-min Rain = 0
KGO1 151739Z 22016KT 32/19 A3011 RMK A01 T03200186  RH  045%=      5-min Rain = 0
KGO1 151740Z 23014KT 32/19 A3011 RMK A01 T03190190  RH  046%=      5-min Rain = 0
KGO1 151741Z 23015KT 32/19 A3011 RMK A01 T03190194  RH  048%=      5-min Rain = 0
KGO1 151742Z 22015KT 32/19 A3011 RMK A01 T03200193  RH  047%=      5-min Rain = 0
KGO1 151743Z 22014KT 32/20 A3011 RMK A01 T03200196  RH  048%=      5-min Rain = 0
KGO1 151744Z 22016KT 32/19 A3011 RMK A01 T03210193  RH  047%=      5-min Rain = 0
KGO1 151745Z 22017KT 32/19 A3011 RMK A01 T03220189  RH  045%=      5-min Rain = 0
KGO1 151746Z 22014KT 32/19 A3011 RMK A01 T03220192  RH  046%=      5-min Rain = 0
KGO1 151747Z 23014KT 32/19 A3011 RMK A01 T03220192  RH  046%=      5-min Rain = 0
KGO1 151748Z 22015KT 32/19 A301 RMK A01 T03220188  RH  045%=      5-min Rain = 0
KGO1 151749Z 22014KT 32/19 A301 RMK A01 T03230190  RH  045%=      5-min Rain = 0
KGO1 151750Z 24013KT 32/20 A301 RMK A01 T03230196  RH  047%=      5-min Rain = 0
KGO1 151751Z 23016KT 33/20 A301 RMK A01 T03250199  RH  047%=      5-min Rain = 0
KGO1 151752Z 23017KT 33/19 A301 RMK A01 T03260194  RH  046%=      5-min Rain = 0
KGO1 151753Z 23016KT 33/19 A301 RMK A01 T03250193  RH  046%=      5-min Rain = 0
KGO1 151754Z 23015KT 32/19 A301 RMK A01 T03240193  RH  046%=      5-min Rain = 0
KGO1 151755Z 22015KT 32/19 A301 RMK A01 T03240192  RH  046%=      5-min Rain = 0
KGO1 151756Z 23015KT 32/19 A301 RMK A01 T03230188  RH  045%=      5-min Rain = 0
KGO1 151757Z 23012KT 32/20 A301 RMK A01 T03240197  RH  047%=      5-min Rain = 0
KGO1 151758Z 22013KT 33/20 A301 RMK A01 T03280196  RH  046%=      5-min Rain = 0
KGO1 151759Z 22012KT 33/19 A301 RMK A01 T03290194  RH  045%=      5-min Rain = 0
KGO1 151800Z 22013KT 33/19 A301 RMK A01 T03290193  RH  045%=      5-min Rain = 0
KGO1 151801Z 22012KT 33/20 A301 RMK A01 T03280195  RH  046%=      5-min Rain = 0
KGO1 151802Z 21013KT 33/20 A301 RMK A01 T03290195  RH  045%=      5-min Rain = 0
KGO1 151803Z 21012KT 33/20 A301 RMK A01 T03290195  RH  045%=      5-min Rain = 0
KGO1 151804Z 22011KT 33/20 A301 RMK A01 T03290195  RH  045%=      5-min Rain = 0
KGO1 151805Z 21015KT 33/19 A301 RMK A01 T03310192  RH  044%=      5-min Rain = 0
KGO1 151806Z 22012KT 33/20 A301 RMK A01 T03330198  RH  045%=      5-min Rain = 0
KGO1 151807Z 24011KT 34/20 A301 RMK A01 T03350197  RH  044%=      5-min Rain = 0
KGO1 151808Z 22011KT 34/20 A301 RMK A01 T03350196  RH  044%=      5-min Rain = 0
KGO1 151809Z 21012KT 33/20 A301 RMK A01 T03340196  RH  044%=      5-min Rain = 0
KGO1 151810Z 21013KT 33/20 A301 RMK A01 T03340195  RH  044%=      5-min Rain = 0
KGO1 151811Z 21012KT 33/19 A301 RMK A01 T03330192  RH  044%=      5-min Rain = 0
KGO1 151812Z 21013KT 33/19 A301 RMK A01 T03330190  RH  043%=      5-min Rain = 0
KGO1 151813Z 22011KT 33/19 A301 RMK A01 T03330190  RH  043%=      5-min Rain = 0
KGO1 151814Z 23011KT 33/20 A301 RMK A01 T03320196  RH  045%=      5-min Rain = 0
KGO1 151815Z 24011KT 33/20 A301 RMK A01 T03310195  RH  045%=      5-min Rain = 0
KGO1 151816Z 22012G17KT 33/20 A301 RMK A01 T03310198  RH  045%=      5-min Rain = 0
KGO1 151817Z 21013KT 33/19 A301 RMK A01 T03320194  RH  044%=      5-min Rain = 0
KGO1 151818Z 21010KT 33/19 A301 RMK A01 T03320191  RH  043%=      5-min Rain = 0
KGO1 151819Z 22010KT 33/19 A301 RMK A01 T03330193  RH  044%=      5-min Rain = 0
KGO1 151820Z 21013KT 33/20 A3009 RMK A01 T03340196  RH  044%=      5-min Rain = 0
KGO1 151821Z 21015KT 34/19 A3009 RMK A01 T03360190  RH  042%=      5-min Rain = 0
KGO1 151822Z 24013KT 34/19 A301 RMK A01 T03350189  RH  042%=      5-min Rain = 0
KGO1 151823Z 24013KT 33/19 A3009 RMK A01 T03340190  RH  043%=      5-min Rain = 0
KGO1 151824Z 24011KT 33/19 A3009 RMK A01 T03340188  RH  042%=      5-min Rain = 0
KGO1 151825Z 21012KT 33/19 A3009 RMK A01 T03330194  RH  044%=      5-min Rain = 0
KGO1 151826Z 21011KT 33/19 A3009 RMK A01 T03340192  RH  043%=      5-min Rain = 0
KGO1 151827Z 23010KT 33/19 A3009 RMK A01 T03340193  RH  043%=      5-min Rain = 0
KGO1 151828Z 24012KT 34/19 A3009 RMK A01 T03350194  RH  044%=      5-min Rain = 0
KGO1 151829Z 23012KT 34/20 A3009 RMK A01 T03370199  RH  045%=      5-min Rain = 0
KGO1 151830Z 23013KT 34/20 A3009 RMK A01 T03380195  RH  043%=      5-min Rain = 0
KGO1 151831Z 22011KT 34/19 A3009 RMK A01 T03370189  RH  042%=      5-min Rain = 0
KGO1 151832Z 22011KT 34/19 A3009 RMK A01 T03360194  RH  043%=      5-min Rain = 0
KGO1 151833Z 20010KT 34/20 A3009 RMK A01 T03380198  RH  044%=      5-min Rain = 0
KGO1 151834Z 21009KT 34/21 A3009 RMK A01 T03420205  RH  045%=      5-min Rain = 0
KGO1 151835Z 19014KT 35/20 A3009 RMK A01 T03460197  RH  042%=      5-min Rain = 0
KGO1 151836Z 19012KT 34/19 A3009 RMK A01 T03440193  RH  041%=      5-min Rain = 0
KGO1 151837Z 20011KT 34/19 A3009 RMK A01 T03420192  RH  041%=      5-min Rain = 0
KGO1 151838Z 22011KT 34/19 A3009 RMK A01 T03410190  RH  041%=      5-min Rain = 0
KGO1 151839Z 22010KT 34/19 A3009 RMK A01 T03400186  RH  040%=      5-min Rain = 0
KGO1 151840Z 23010KT 34/19 A3009 RMK A01 T03380189  RH  042%=      5-min Rain = 0
KGO1 151841Z 23010KT 34/19 A3009 RMK A01 T03380186  RH  041%=      5-min Rain = 0
KGO1 151842Z 20010G16KT 34/19 A3009 RMK A01 T03380188  RH  041%=      5-min Rain = 0
KGO1 151843Z 20015KT 34/19 A3009 RMK A01 T03390185  RH  040%=      5-min Rain = 0
KGO1 151844Z 21009KT 34/18 A3009 RMK A01 T03390178  RH  039%=      5-min Rain = 0
KGO1 151845Z 23009KT 34/19 A3009 RMK A01 T03390187  RH  041%=      5-min Rain = 0
KGO1 151846Z 21010KT 34/19 A3009 RMK A01 T03430191  RH  041%=      5-min Rain = 0
KGO1 151847Z 20007KT 34/19 A3009 RMK A01 T03430185  RH  039%=      5-min Rain = 0
KGO1 151848Z 19010KT 34/19 A3009 RMK A01 T03430188  RH  040%=      5-min Rain = 0
KGO1 151849Z 23013KT 35/19 A3009 RMK A01 T03460188  RH  039%=      5-min Rain = 0
KGO1 151850Z 24014KT 35/18 A3009 RMK A01 T03470180  RH  037%=      5-min Rain = 0
KGO1 151851Z 23015KT 34/18 A3009 RMK A01 T03440181  RH  038%=      5-min Rain = 0
KGO1 151852Z 24013KT 34/19 A3009 RMK A01 T03420186  RH  040%=      5-min Rain = 0
KGO1 151853Z 25013KT 34/19 A3008 RMK A01 T03430189  RH  040%=      5-min Rain = 0
KGO1 151854Z 25013KT 34/19 A3008 RMK A01 T03440188  RH  040%=      5-min Rain = 0
KGO1 151855Z 24012KT 34/18 A3009 RMK A01 T03440180  RH  038%=      5-min Rain = 0
KGO1 151856Z 23011KT 34/18 A3008 RMK A01 T03430184  RH  039%=      5-min Rain = 0
KGO1 151857Z 23013KT 34/18 A3008 RMK A01 T03420184  RH  039%=      5-min Rain = 0
KGO1 151858Z 22011KT 34/18 A3008 RMK A01 T03420183  RH  039%=      5-min Rain = 0
KGO1 151859Z 23012KT 34/18 A3008 RMK A01 T03440181  RH  038%=      5-min Rain = 0
KGO1 151900Z 22014KT 35/18 A3008 RMK A01 T03450181  RH  038%=      5-min Rain = 0
KGO1 151901Z 22013KT 35/18 A3008 RMK A01 T03450182  RH  038%=      5-min Rain = 0
KGO1 151902Z 23013KT 35/18 A3008 RMK A01 T03460179  RH  037%=      5-min Rain = 0
KGO1 151903Z 23012KT 35/18 A3008 RMK A01 T03460177  RH  037%=      5-min Rain = 0
KGO1 151904Z 22013KT 34/18 A3008 RMK A01 T03440178  RH  037%=      5-min Rain = 0
KGO1 151905Z 22013KT 34/18 A3008 RMK A01 T03440182  RH  038%=      5-min Rain = 0
KGO1 151906Z 23014KT 35/18 A3008 RMK A01 T03470181  RH  037%=      5-min Rain = 0
KGO1 151907Z 23013KT 35/18 A3008 RMK A01 T03470178  RH  037%=      5-min Rain = 0
KGO1 151908Z 23013KT 35/18 A3008 RMK A01 T03470177  RH  037%=      5-min Rain = 0
KGO1 151909Z 24013KT 35/18 A3008 RMK A01 T03450183  RH  038%=      5-min Rain = 0
KGO1 151910Z 24011KT 35/18 A3008 RMK A01 T03460184  RH  038%=      5-min Rain = 0
KGO1 151911Z 24012KT 35/18 A3008 RMK A01 T03470182  RH  038%=      5-min Rain = 0
KGO1 151912Z 24010KT 35/18 A3008 RMK A01 T03470179  RH  037%=      5-min Rain = 0
KGO1 151913Z 24010KT 35/18 A3008 RMK A01 T03460184  RH  038%=      5-min Rain = 0
KGO1 151914Z 24010KT 35/18 A3008 RMK A01 T03470183  RH  038%=      5-min Rain = 0
KGO1 151915Z 23012KT 35/18 A3008 RMK A01 T03470184  RH  038%=      5-min Rain = 0
KGO1 151916Z 22009KT 35/18 A3008 RMK A01 T03480181  RH  037%=      5-min Rain = 0
KGO1 151917Z 23010KT 35/18 A3008 RMK A01 T03490182  RH  037%=      5-min Rain = 0
KGO1 151918Z 23011KT 35/18 A3008 RMK A01 T03490177  RH  036%=      5-min Rain = 0
KGO1 151919Z 23012KT 35/18 A3008 RMK A01 T03480180  RH  037%=      5-min Rain = 0
KGO1 151920Z 23014KT 35/18 A3008 RMK A01 T03470180  RH  037%=      5-min Rain = 0
KGO1 151921Z 23014KT 35/18 A3007 RMK A01 T03470182  RH  038%=      5-min Rain = 0
KGO1 151922Z 23010KT 35/18 A3008 RMK A01 T03470177  RH  036%=      5-min Rain = 0
KGO1 151923Z 24010KT 35/18 A3007 RMK A01 T03470182  RH  038%=      5-min Rain = 0
KGO1 151924Z 23012KT 35/18 A3007 RMK A01 T03490177  RH  036%=      5-min Rain = 0
KGO1 151925Z 23012KT 35/18 A3007 RMK A01 T03490179  RH  037%=      5-min Rain = 0
KGO1 151926Z 23011KT 35/18 A3007 RMK A01 T03500175  RH  036%=      5-min Rain = 0
KGO1 151927Z 24010KT 35/17 A3007 RMK A01 T03500168  RH  034%=      5-min Rain = 0
KGO1 151928Z 23009KT 35/17 A3007 RMK A01 T03500170  RH  034%=      5-min Rain = 0
KGO1 151929Z 23011KT 35/17 A3007 RMK A01 T03490174  RH  036%=      5-min Rain = 0
KGO1 151930Z 23013KT 35/18 A3007 RMK A01 T03490180  RH  037%=      5-min Rain = 0
KGO1 151931Z 22011KT 35/18 A3007 RMK A01 T03500180  RH  037%=      5-min Rain = 0
KGO1 151932Z 22012KT 35/18 A3007 RMK A01 T03520180  RH  036%=      5-min Rain = 0
KGO1 151933Z 22012KT 35/18 A3007 RMK A01 T03520178  RH  036%=      5-min Rain = 0
KGO1 151934Z 23010KT 35/17 A3007 RMK A01 T03500174  RH  035%=      5-min Rain = 0
KGO1 151935Z 25007KT 35/17 A3007 RMK A01 T03490174  RH  035%=      5-min Rain = 0
KGO1 151936Z 24007KT 35/17 A3007 RMK A01 T03500171  RH  035%=      5-min Rain = 0
KGO1 151937Z 24010KT 35/18 A3007 RMK A01 T03520180  RH  036%=      5-min Rain = 0
KGO1 151938Z 24015KT 36/18 A3007 RMK A01 T03550179  RH  036%=      5-min Rain = 0
KGO1 151939Z 22012KT 36/18 A3007 RMK A01 T03550176  RH  035%=      5-min Rain = 0
KGO1 151940Z 22011KT 35/18 A3007 RMK A01 T03540177  RH  035%=      5-min Rain = 0
KGO1 151941Z 24010KT 35/17 A3007 RMK A01 T03540174  RH  034%=      5-min Rain = 0
KGO1 151942Z 23008KT 35/17 A3007 RMK A01 T03540174  RH  035%=      5-min Rain = 0
KGO1 151943Z 23007KT 36/17 A3007 RMK A01 T03550166  RH  033%=      5-min Rain = 0
KGO1 151944Z 23007KT 36/17 A3007 RMK A01 T03550172  RH  034%=      5-min Rain = 0
KGO1 151945Z 21008KT 36/17 A3007 RMK A01 T03550172  RH  034%=      5-min Rain = 0
KGO1 151946Z 22010KT 36/18 A3007 RMK A01 T03570176  RH  034%=      5-min Rain = 0
KGO1 151947Z 23009KT 36/18 A3006 RMK A01 T03570176  RH  034%=      5-min Rain = 0
KGO1 151948Z 24009KT 36/17 A3006 RMK A01 T03560171  RH  033%=      5-min Rain = 0
KGO1 151949Z 25006KT 35/17 A3006 RMK A01 T03540167  RH  033%=      5-min Rain = 0
KGO1 151950Z 24006KT 35/17 A3006 RMK A01 T03510166  RH  033%=      5-min Rain = 0
KGO1 151951Z 23009KT 35/18 A3006 RMK A01 T03510176  RH  035%=      5-min Rain = 0
KGO1 151952Z 25010KT 35/18 A3006 RMK A01 T03540177  RH  035%=      5-min Rain = 0
KGO1 151953Z 24009G15KT 35/18 A3006 RMK A01 T03540181  RH  036%=      5-min Rain = 0
KGO1 151954Z 25011KT 36/18 A3006 RMK A01 T03570184  RH  036%=      5-min Rain = 0
KGO1 151955Z 24010KT 36/18 A3006 RMK A01 T03580181  RH  035%=      5-min Rain = 0
KGO1 151956Z 24013G18KT 36/19 A3006 RMK A01 T03570185  RH  037%=      5-min Rain = 0
KGO1 151957Z 23013KT 36/18 A3006 RMK A01 T03550177  RH  035%=      5-min Rain = 0
KGO1 151958Z 23011KT 35/18 A3006 RMK A01 T03540175  RH  035%=      5-min Rain = 0
KGO1 151959Z 23010KT 36/18 A3006 RMK A01 T03550178  RH  035%=      5-min Rain = 0
KGO1 152000Z 22009KT 36/18 A3006 RMK A01 T03560179  RH  035%=      5-min Rain = 0
KGO1 152001Z 23007KT 36/17 A3006 RMK A01 T03570169  RH  033%=      5-min Rain = 0
KGO1 152002Z 21011KT 36/17 A3006 RMK A01 T03570174  RH  034%=      5-min Rain = 0
KGO1 152003Z 21015KT 36/17 A3006 RMK A01 T03570172  RH  033%=      5-min Rain = 0
KGO1 152004Z 22012KT 36/18 A3006 RMK A01 T03570178  RH  035%=      5-min Rain = 0
KGO1 152005Z 23013KT 36/17 A3006 RMK A01 T03570173  RH  034%=      5-min Rain = 0
KGO1 152006Z 22011KT 36/18 A3006 RMK A01 T03570175  RH  034%=      5-min Rain = 0
KGO1 152007Z 23008KT 36/17 A3006 RMK A01 T03570167  RH  033%=      5-min Rain = 0
KGO1 152008Z 24013KT 36/17 A3006 RMK A01 T03560173  RH  034%=      5-min Rain = 0
KGO1 152009Z 24009KT 36/17 A3006 RMK A01 T03560173  RH  034%=      5-min Rain = 0
KGO1 152010Z 24009KT 36/18 A3006 RMK A01 T03560176  RH  035%=      5-min Rain = 0
KGO1 152011Z 23009KT 36/17 A3005 RMK A01 T03570169  RH  033%=      5-min Rain = 0
KGO1 152012Z 24011KT 36/18 A3005 RMK A01 T03560178  RH  035%=      5-min Rain = 0
KGO1 152013Z 23012KT 36/17 A3005 RMK A01 T03570169  RH  033%=      5-min Rain = 0
KGO1 152014Z 24012KT 36/17 A3005 RMK A01 T03550172  RH  034%=      5-min Rain = 0
KGO1 152015Z 24010KT 36/17 A3005 RMK A01 T03550170  RH  034%=      5-min Rain = 0
KGO1 152016Z 25008KT 35/17 A3005 RMK A01 T03540167  RH  033%=      5-min Rain = 0
KGO1 152017Z 24006KT 35/17 A3005 RMK A01 T03540168  RH  033%=      5-min Rain = 0
KGO1 152018Z 22003KT 35/16 A3005 RMK A01 T03540162  RH  032%=      5-min Rain = 0
KGO1 152019Z 23004KT 35/16 A3005 RMK A01 T03530163  RH  032%=      5-min Rain = 0
KGO1 152020Z 21005KT 35/17 A3005 RMK A01 T03540171  RH  034%=      5-min Rain = 0
KGO1 152021Z 20005KT 36/17 A3005 RMK A01 T03580168  RH  032%=      5-min Rain = 0
KGO1 152022Z 18004KT 36/16 A3005 RMK A01 T03570162  RH  031%=      5-min Rain = 0
KGO1 152023Z 19005KT 36/16 A3005 RMK A01 T03550164  RH  032%=      5-min Rain = 0
KGO1 152024Z 22006KT 36/17 A3004 RMK A01 T03560172  RH  034%=      5-min Rain = 0
KGO1 152025Z 25008KT 36/18 A3004 RMK A01 T03580175  RH  034%=      5-min Rain = 0
KGO1 152026Z 24005KT 36/18 A3004 RMK A01 T03600180  RH  035%=      5-min Rain = 0
KGO1 152027Z 23008KT 36/18 A3004 RMK A01 T03610183  RH  035%=      5-min Rain = 0
KGO1 152028Z 22008KT 36/17 A3004 RMK A01 T03640173  RH  032%=      5-min Rain = 0
KGO1 152029Z 20007KT 36/17 A3004 RMK A01 T03610171  RH  033%=      5-min Rain = 0
KGO1 152030Z 19008KT 36/17 A3004 RMK A01 T03600171  RH  033%=      5-min Rain = 0
KGO1 152031Z 19003KT 36/17 A3004 RMK A01 T03580168  RH  032%=      5-min Rain = 0
KGO1 152032Z 23004KT 36/17 A3004 RMK A01 T03580171  RH  033%=      5-min Rain = 0
KGO1 152033Z 24008KT 36/18 A3004 RMK A01 T03610181  RH  035%=      5-min Rain = 0
KGO1 152034Z 23011KT 36/18 A3004 RMK A01 T03630177  RH  034%=      5-min Rain = 0
KGO1 152035Z 22010KT 36/17 A3004 RMK A01 T03630169  RH  032%=      5-min Rain = 0
KGO1 152036Z 24011KT 36/17 A3004 RMK A01 T03610166  RH  032%=      5-min Rain = 0
KGO1 152037Z 25009KT 36/17 A3004 RMK A01 T03590168  RH  032%=      5-min Rain = 0
KGO1 152038Z 22009KT 36/17 A3004 RMK A01 T03600169  RH  032%=      5-min Rain = 0
KGO1 152039Z 22008KT 36/17 A3004 RMK A01 T03580172  RH  033%=      5-min Rain = 0
KGO1 152040Z 23008KT 36/18 A3004 RMK A01 T03580179  RH  035%=      5-min Rain = 0
KGO1 152041Z 24012KT 36/18 A3004 RMK A01 T03610183  RH  035%=      5-min Rain = 0
KGO1 152042Z 23011KT 36/18 A3004 RMK A01 T03590179  RH  035%=      5-min Rain = 0
KGO1 152043Z 22009KT 36/18 A3004 RMK A01 T03560181  RH  036%=      5-min Rain = 0
KGO1 152044Z 24004G9KT 35/17 A3004 RMK A01 T03530168  RH  033%=      5-min Rain = 0
KGO1 152045Z 23006KT 35/17 A3004 RMK A01 T03480171  RH  035%=      5-min Rain = 0
KGO1 152046Z 23009G14KT 35/17 A3003 RMK A01 T03460173  RH  036%=      5-min Rain = 0
KGO1 152047Z 20010KT 34/18 A3004 RMK A01 T03430177  RH  037%=      5-min Rain = 0
KGO1 152048Z 19008KT 34/17 A3003 RMK A01 T03410172  RH  037%=      5-min Rain = 0
KGO1 152049Z 19006KT 34/17 A3003 RMK A01 T03400170  RH  036%=      5-min Rain = 0
KGO1 152050Z 20005KT 35/17 A3003 RMK A01 T03450173  RH  036%=      5-min Rain = 0
KGO1 152051Z 21007KT 35/17 A3003 RMK A01 T03490169  RH  034%=      5-min Rain = 0
KGO1 152052Z 20007KT 35/17 A3003 RMK A01 T03520173  RH  035%=      5-min Rain = 0
KGO1 152053Z 19006KT 36/17 A3003 RMK A01 T03560173  RH  034%=      5-min Rain = 0
KGO1 152054Z 22007KT 36/18 A3003 RMK A01 T03600177  RH  034%=      5-min Rain = 0
KGO1 152055Z 22005KT 36/17 A3003 RMK A01 T03620165  RH  031%=      5-min Rain = 0
KGO1 152056Z 24006KT 36/17 A3003 RMK A01 T03610174  RH  033%=      5-min Rain = 0
KGO1 152057Z 24010KT 36/18 A3003 RMK A01 T03630180  RH  034%=      5-min Rain = 0
KGO1 152058Z 23010KT 36/18 A3003 RMK A01 T03630179  RH  034%=      5-min Rain = 0
KGO1 152059Z 23011KT 36/17 A3003 RMK A01 T03620174  RH  033%=      5-min Rain = 0
KGO1 152100Z 23007KT 36/17 A3003 RMK A01 T03620167  RH  032%=      5-min Rain = 0
KGO1 152101Z 23007KT 36/18 A3003 RMK A01 T03610178  RH  034%=      5-min Rain = 0
KGO1 152102Z 23010KT 36/18 A3003 RMK A01 T03610182  RH  035%=      5-min Rain = 0
KGO1 152103Z 23007KT 36/18 A3003 RMK A01 T03630179  RH  034%=      5-min Rain = 0
KGO1 152104Z 25008KT 36/17 A3002 RMK A01 T03630173  RH  033%=      5-min Rain = 0
KGO1 152105Z 26007KT 36/17 A3002 RMK A01 T03630167  RH  032%=      5-min Rain = 0
KGO1 152106Z 23005KT 36/17 A3002 RMK A01 T03620168  RH  032%=      5-min Rain = 0
KGO1 152107Z 19009KT 36/17 A3002 RMK A01 T03620171  RH  032%=      5-min Rain = 0
KGO1 152108Z 19010KT 36/17 A3002 RMK A01 T03620169  RH  032%=      5-min Rain = 0
KGO1 152109Z 20009KT 36/17 A3002 RMK A01 T03610172  RH  033%=      5-min Rain = 0
KGO1 152110Z 19010KT 36/18 A3002 RMK A01 T03620179  RH  034%=      5-min Rain = 0
KGO1 152111Z 19011KT 36/17 A3002 RMK A01 T03640174  RH  033%=      5-min Rain = 0
KGO1 152112Z 20010KT 36/18 A3002 RMK A01 T03630175  RH  033%=      5-min Rain = 0
KGO1 152113Z 20007KT 36/17 A3002 RMK A01 T03620174  RH  033%=      5-min Rain = 0
KGO1 152114Z 20006KT 36/17 A3002 RMK A01 T03610166  RH  032%=      5-min Rain = 0
KGO1 152115Z 20006KT 36/17 A3002 RMK A01 T03570170  RH  033%=      5-min Rain = 0
KGO1 152116Z 19005KT 36/17 A3002 RMK A01 T03570170  RH  033%=      5-min Rain = 0
KGO1 152117Z 23006KT 36/17 A3002 RMK A01 T03590174  RH  034%=      5-min Rain = 0
KGO1 152118Z 24005KT 36/17 A3002 RMK A01 T03610168  RH  032%=      5-min Rain = 0
KGO1 152119Z 23005KT 36/17 A3002 RMK A01 T03610169  RH  032%=      5-min Rain = 0
KGO1 152120Z 21006KT 36/17 A3002 RMK A01 T03630172  RH  032%=      5-min Rain = 0
KGO1 152121Z 22009G14KT 36/17 A3002 RMK A01 T03640174  RH  033%=      5-min Rain = 0
KGO1 152122Z 21009KT 36/17 A3002 RMK A01 T03630171  RH  032%=      5-min Rain = 0
KGO1 152123Z 19009KT 36/17 A3001 RMK A01 T03620165  RH  031%=      5-min Rain = 0
KGO1 152124Z 24013KT 36/18 A3001 RMK A01 T03610176  RH  034%=      5-min Rain = 0
KGO1 152125Z 24011KT 36/17 A3002 RMK A01 T03620174  RH  033%=      5-min Rain = 0
KGO1 152126Z 25007KT 36/18 A3001 RMK A01 T03600181  RH  035%=      5-min Rain = 0
KGO1 152127Z 25006KT 36/18 A3001 RMK A01 T03630180  RH  034%=      5-min Rain = 0
KGO1 152128Z 26007KT 36/17 A3001 RMK A01 T03640172  RH  032%=      5-min Rain = 0
KGO1 152129Z 25006KT 36/17 A3001 RMK A01 T03630170  RH  032%=      5-min Rain = 0
KGO1 152130Z 25006KT 36/17 A3001 RMK A01 T03630171  RH  032%=      5-min Rain = 0
KGO1 152131Z 26008KT 36/17 A3001 RMK A01 T03630173  RH  033%=      5-min Rain = 0
KGO1 152132Z 26009KT 36/18 A3001 RMK A01 T03630175  RH  033%=      5-min Rain = 0
KGO1 152133Z 27009KT 36/18 A3001 RMK A01 T03630175  RH  033%=      5-min Rain = 0
KGO1 152134Z 25009KT 36/17 A3001 RMK A01 T03630174  RH  033%=      5-min Rain = 0
KGO1 152135Z 26006KT 36/18 A3001 RMK A01 T03630175  RH  033%=      5-min Rain = 0
KGO1 152136Z 23008KT 36/17 A3001 RMK A01 T03630174  RH  033%=      5-min Rain = 0
KGO1 152137Z 21008KT 36/16 A3001 RMK A01 T03630162  RH  030%=      5-min Rain = 0
KGO1 152138Z 20008KT 36/16 A3001 RMK A01 T03630161  RH  030%=      5-min Rain = 0
KGO1 152139Z 21007KT 36/16 A3001 RMK A01 T03630164  RH  031%=      5-min Rain = 0
KGO1 152140Z 24006KT 36/16 A3001 RMK A01 T03640163  RH  030%=      5-min Rain = 0
KGO1 152141Z 23005KT 36/16 A3001 RMK A01 T03640161  RH  030%=      5-min Rain = 0
KGO1 152142Z 22005KT 37/16 A3001 RMK A01 T03650163  RH  030%=      5-min Rain = 0
KGO1 152143Z 22007KT 37/17 A30 RMK A01 T03660165  RH  031%=      5-min Rain = 0
KGO1 152144Z 24007KT 37/17 A30 RMK A01 T03660169  RH  031%=      5-min Rain = 0
KGO1 152145Z 22006KT 37/17 A30 RMK A01 T03660165  RH  031%=      5-min Rain = 0
KGO1 152146Z 20005KT 37/16 A30 RMK A01 T03650163  RH  030%=      5-min Rain = 0
KGO1 152147Z 20008KT 37/17 A30 RMK A01 T03660167  RH  031%=      5-min Rain = 0
KGO1 152148Z 19008KT 37/17 A30 RMK A01 T03670167  RH  031%=      5-min Rain = 0
KGO1 152149Z 19008KT 37/17 A30 RMK A01 T03680165  RH  030%=      5-min Rain = 0
KGO1 152150Z 20006KT 37/16 A30 RMK A01 T03670159  RH  029%=      5-min Rain = 0
KGO1 152151Z 22005KT 37/16 A30 RMK A01 T03650163  RH  030%=      5-min Rain = 0
KGO1 152152Z 24006KT 37/17 A30 RMK A01 T03650171  RH  032%=      5-min Rain = 0
KGO1 152153Z 24006KT 37/17 A30 RMK A01 T03650171  RH  032%=      5-min Rain = 0
KGO1 152154Z 26007KT 37/17 A30 RMK A01 T03650165  RH  031%=      5-min Rain = 0
KGO1 152155Z 23007KT 36/17 A30 RMK A01 T03640168  RH  031%=      5-min Rain = 0
KGO1 152156Z 23005KT 36/16 A30 RMK A01 T03640164  RH  031%=      5-min Rain = 0
KGO1 152157Z 22007KT 37/17 A30 RMK A01 T03650173  RH  032%=      5-min Rain = 0
KGO1 152158Z 22007KT 37/17 A30 RMK A01 T03670165  RH  030%=      5-min Rain = 0
KGO1 152159Z 22007KT 37/16 A30 RMK A01 T03670163  RH  030%=      5-min Rain = 0
KGO1 152200Z 21008KT 37/17 A30 RMK A01 T03650170  RH  032%=      5-min Rain = 0
KGO1 152201Z 22010KT 37/17 A30 RMK A01 T03660170  RH  032%=      5-min Rain = 0
KGO1 152202Z 22010KT 37/17 A30 RMK A01 T03670170  RH  031%=      5-min Rain = 0
KGO1 152203Z 22009KT 37/16 A30 RMK A01 T03680164  RH  030%=      5-min Rain = 0
KGO1 152204Z 22009KT 37/16 A30 RMK A01 T03660163  RH  030%=      5-min Rain = 0
KGO1 152205Z 22006KT 37/17 A30 RMK A01 T03660165  RH  031%=      5-min Rain = 0
KGO1 152206Z 22005KT 37/16 A30 RMK A01 T03670162  RH  030%=      5-min Rain = 0
KGO1 152207Z 22006KT 37/17 A30 RMK A01 T03700167  RH  030%=      5-min Rain = 0
KGO1 152208Z 21006KT 37/16 A30 RMK A01 T03710155  RH  028%=      5-min Rain = 0
KGO1 152209Z 22010KT 37/16 A30 RMK A01 T03690161  RH  029%=      5-min Rain = 0
KGO1 152210Z 21008KT 37/16 A30 RMK A01 T03660158  RH  029%=      5-min Rain = 0
KGO1 152211Z 21007KT 37/16 A30 RMK A01 T03650156  RH  029%=      5-min Rain = 0
KGO1 152212Z 20007KT 37/16 A30 RMK A01 T03650160  RH  030%=      5-min Rain = 0
KGO1 152213Z 22005KT 37/16 A30 RMK A01 T03660160  RH  030%=      5-min Rain = 0
KGO1 152214Z 22006KT 37/16 A30 RMK A01 T03660157  RH  029%=      5-min Rain = 0
KGO1 152215Z 22005KT 37/16 A30 RMK A01 T03670156  RH  029%=      5-min Rain = 0
KGO1 152216Z 22003KT 37/15 A2999 RMK A01 T03660150  RH  028%=      5-min Rain = 0
KGO1 152217Z 25004KT 37/16 A2999 RMK A01 T03660155  RH  029%=      5-min Rain = 0
KGO1 152218Z 23004KT 37/16 A2999 RMK A01 T03670156  RH  029%=      5-min Rain = 0
KGO1 152219Z 23007KT 37/16 A2999 RMK A01 T03670162  RH  030%=      5-min Rain = 0
KGO1 152220Z 21008KT 37/17 A2999 RMK A01 T03670172  RH  032%=      5-min Rain = 0
KGO1 152221Z 22011KT 37/17 A2999 RMK A01 T03670167  RH  031%=      5-min Rain = 0
KGO1 152222Z 22012KT 37/17 A2999 RMK A01 T03670167  RH  031%=      5-min Rain = 0
KGO1 152223Z 22011KT 37/17 A2999 RMK A01 T03660167  RH  031%=      5-min Rain = 0
KGO1 152224Z 24007KT 36/16 A2999 RMK A01 T03640161  RH  030%=      5-min Rain = 0
KGO1 152225Z 23005KT 36/16 A2999 RMK A01 T03630161  RH  030%=      5-min Rain = 0
KGO1 152226Z 21008KT 36/17 A2999 RMK A01 T03640166  RH  031%=      5-min Rain = 0
KGO1 152227Z 20006KT 36/16 A2999 RMK A01 T03640161  RH  030%=      5-min Rain = 0
KGO1 152228Z 20006KT 37/16 A2999 RMK A01 T03650157  RH  029%=      5-min Rain = 0
KGO1 152229Z 22007KT 37/17 A2999 RMK A01 T03650170  RH  032%=      5-min Rain = 0
KGO1 152230Z 23006KT 37/17 A2999 RMK A01 T03660168  RH  031%=      5-min Rain = 0
KGO1 152231Z 24006KT 37/17 A2999 RMK A01 T03680168  RH  031%=      5-min Rain = 0
KGO1 152232Z 24005KT 37/17 A2999 RMK A01 T03680166  RH  030%=      5-min Rain = 0
KGO1 152233Z 23008KT 37/17 A2999 RMK A01 T03670168  RH  031%=      5-min Rain = 0
KGO1 152234Z 23008KT 37/17 A2999 RMK A01 T03670169  RH  031%=      5-min Rain = 0
KGO1 152235Z 22008KT 37/17 A2999 RMK A01 T03660171  RH  032%=      5-min Rain = 0
KGO1 152236Z 21006KT 37/16 A2999 RMK A01 T03660161  RH  030%=      5-min Rain = 0
KGO1 152237Z 23004KT 36/16 A2999 RMK A01 T03640160  RH  030%=      5-min Rain = 0
KGO1 152238Z 23005KT 36/16 A2999 RMK A01 T03640159  RH  030%=      5-min Rain = 0
KGO1 152239Z 24005KT 36/17 A2999 RMK A01 T03640167  RH  031%=      5-min Rain = 0
KGO1 152240Z 21007KT 37/17 A2999 RMK A01 T03650167  RH  031%=      5-min Rain = 0
KGO1 152241Z 20006KT 37/16 A2999 RMK A01 T03650159  RH  030%=      5-min Rain = 0
KGO1 152242Z 18004KT 37/16 A2999 RMK A01 T03650159  RH  029%=      5-min Rain = 0
KGO1 152243Z 20004KT 37/16 A2999 RMK A01 T03670164  RH  030%=      5-min Rain = 0
KGO1 152244Z 21006KT 37/16 A2999 RMK A01 T03690162  RH  029%=      5-min Rain = 0
KGO1 152245Z 19005KT 37/17 A2999 RMK A01 T03690167  RH  030%=      5-min Rain = 0
KGO1 152246Z 18009KT 37/17 A2998 RMK A01 T03670165  RH  030%=      5-min Rain = 0
KGO1 152247Z 19007KT 37/17 A2998 RMK A01 T03670168  RH  031%=      5-min Rain = 0
KGO1 152248Z 18013KT 37/17 A2998 RMK A01 T03670165  RH  030%=      5-min Rain = 0
KGO1 152249Z 18010KT 37/16 A2998 RMK A01 T03660160  RH  030%=      5-min Rain = 0
KGO1 152250Z 18014KT 36/17 A2998 RMK A01 T03640165  RH  031%=      5-min Rain = 0
KGO1 152251Z 19015KT 36/16 A2998 RMK A01 T03640164  RH  031%=      5-min Rain = 0
KGO1 152252Z 20012KT 36/17 A2998 RMK A01 T03620166  RH  031%=      5-min Rain = 0
KGO1 152253Z 20011KT 36/17 A2998 RMK A01 T03610165  RH  031%=      5-min Rain = 0
KGO1 152254Z 20009KT 36/17 A2998 RMK A01 T03600165  RH  032%=      5-min Rain = 0
KGO1 152255Z 21009KT 36/17 A2998 RMK A01 T03600170  RH  033%=      5-min Rain = 0
KGO1 152256Z 21008KT 36/17 A2998 RMK A01 T03600168  RH  032%=      5-min Rain = 0
KGO1 152257Z 21006KT 36/17 A2998 RMK A01 T03600168  RH  032%=      5-min Rain = 0
KGO1 152258Z 20006KT 36/17 A2998 RMK A01 T03610169  RH  032%=      5-min Rain = 0
KGO1 152259Z 20005KT 36/17 A2998 RMK A01 T03620173  RH  033%=      5-min Rain = 0
KGO1 152300Z 20005KT 36/18 A2998 RMK A01 T03630175  RH  033%=      5-min Rain = 0
KGO1 152301Z 20005KT 36/18 A2998 RMK A01 T03630175  RH  033%=      5-min Rain = 0
KGO1 152302Z 21005KT 36/18 A2998 RMK A01 T03630176  RH  033%=      5-min Rain = 0
KGO1 152303Z 21005KT 36/17 A2998 RMK A01 T03640172  RH  032%=      5-min Rain = 0
KGO1 152304Z 21004KT 37/17 A2998 RMK A01 T03650174  RH  033%=      5-min Rain = 0
KGO1 152305Z 20006KT 37/17 A2998 RMK A01 T03660174  RH  032%=      5-min Rain = 0
KGO1 152306Z 19009KT 37/17 A2998 RMK A01 T03660169  RH  031%=      5-min Rain = 0
KGO1 152307Z 19006KT 37/16 A2998 RMK A01 T03650158  RH  029%=      5-min Rain = 0
KGO1 152308Z 20006KT 36/16 A2998 RMK A01 T03630158  RH  030%=      5-min Rain = 0
KGO1 152309Z 20007KT 36/16 A2998 RMK A01 T03620161  RH  030%=      5-min Rain = 0
KGO1 152310Z 20006KT 36/16 A2998 RMK A01 T03620161  RH  030%=      5-min Rain = 0
KGO1 152311Z 20005KT 36/17 A2998 RMK A01 T03620165  RH  031%=      5-min Rain = 0
KGO1 152312Z 20008KT 36/17 A2998 RMK A01 T03640167  RH  031%=      5-min Rain = 0
KGO1 152313Z 19006KT 36/16 A2998 RMK A01 T03630161  RH  030%=      5-min Rain = 0
KGO1 152314Z 19005KT 36/16 A2998 RMK A01 T03630160  RH  030%=      5-min Rain = 0
KGO1 152315Z 19007KT 36/16 A2998 RMK A01 T03630160  RH  030%=      5-min Rain = 0
KGO1 152316Z 20006KT 36/16 A2998 RMK A01 T03630160  RH  030%=      5-min Rain = 0
KGO1 152317Z 19006KT 36/16 A2998 RMK A01 T03630164  RH  031%=      5-min Rain = 0
KGO1 152318Z 19009KT 36/17 A2998 RMK A01 T03630166  RH  031%=      5-min Rain = 0
KGO1 152319Z 21009KT 36/17 A2998 RMK A01 T03630169  RH  032%=      5-min Rain = 0
KGO1 152320Z 21008KT 36/17 A2998 RMK A01 T03620170  RH  032%=      5-min Rain = 0
KGO1 152321Z 20007KT 36/17 A2998 RMK A01 T03620166  RH  031%=      5-min Rain = 0
KGO1 152322Z 20007KT 36/17 A2998 RMK A01 T03620170  RH  032%=      5-min Rain = 0
KGO1 152323Z 19006KT 36/16 A2998 RMK A01 T03630164  RH  031%=      5-min Rain = 0
KGO1 152324Z 19008KT 36/16 A2998 RMK A01 T03640164  RH  031%=      5-min Rain = 0
KGO1 152325Z 20006KT 36/16 A2998 RMK A01 T03640160  RH  030%=      5-min Rain = 0
KGO1 152326Z 20008KT 36/16 A2998 RMK A01 T03630160  RH  030%=      5-min Rain = 0
KGO1 152327Z 20008KT 36/16 A2998 RMK A01 T03630162  RH  030%=      5-min Rain = 0
KGO1 152328Z 19010KT 36/16 A2998 RMK A01 T03630162  RH  030%=      5-min Rain = 0
KGO1 152329Z 19008KT 36/16 A2998 RMK A01 T03630157  RH  030%=      5-min Rain = 0
KGO1 152330Z 20009KT 36/16 A2998 RMK A01 T03630164  RH  031%=      5-min Rain = 0
KGO1 152331Z 19010KT 36/16 A2998 RMK A01 T03630164  RH  031%=      5-min Rain = 0
KGO1 152332Z 18008KT 36/16 A2998 RMK A01 T03630161  RH  030%=      5-min Rain = 0
KGO1 152333Z 19007KT 36/16 A2998 RMK A01 T03630160  RH  030%=      5-min Rain = 0
KGO1 152334Z 19009KT 36/16 A2997 RMK A01 T03620163  RH  031%=      5-min Rain = 0
KGO1 152335Z 18007KT 36/16 A2997 RMK A01 T03620159  RH  030%=      5-min Rain = 0
KGO1 152336Z 18008KT 36/16 A2997 RMK A01 T03620162  RH  031%=      5-min Rain = 0
KGO1 152337Z 17007KT 36/17 A2997 RMK A01 T03620166  RH  031%=      5-min Rain = 0
KGO1 152338Z 17009KT 36/17 A2997 RMK A01 T03620166  RH  031%=      5-min Rain = 0
KGO1 152339Z 18009KT 36/17 A2997 RMK A01 T03620169  RH  032%=      5-min Rain = 0
KGO1 152340Z 18011KT 36/17 A2997 RMK A01 T03620168  RH  032%=      5-min Rain = 0
KGO1 152341Z 19012KT 36/16 A2997 RMK A01 T03620161  RH  030%=      5-min Rain = 0
KGO1 152342Z 19010KT 36/16 A2997 RMK A01 T03610156  RH  030%=      5-min Rain = 0
KGO1 152343Z 19009KT 36/15 A2997 RMK A01 T03600154  RH  029%=      5-min Rain = 0
KGO1 152344Z 18008KT 36/16 A2997 RMK A01 T03590156  RH  030%=      5-min Rain = 0
KGO1 152345Z 18009KT 36/16 A2997 RMK A01 T03590162  RH  031%=      5-min Rain = 0
KGO1 152346Z 20010KT 36/16 A2997 RMK A01 T03590162  RH  031%=      5-min Rain = 0
KGO1 152347Z 20010KT 36/16 A2997 RMK A01 T03590161  RH  031%=      5-min Rain = 0
KGO1 152348Z 19009KT 36/16 A2997 RMK A01 T03590164  RH  032%=      5-min Rain = 0
KGO1 152349Z 19009KT 36/16 A2997 RMK A01 T03580164  RH  032%=      5-min Rain = 0
KGO1 152350Z 19009KT 36/16 A2997 RMK A01 T03580160  RH  031%=      5-min Rain = 0
KGO1 152351Z 18008KT 36/16 A2997 RMK A01 T03580158  RH  030%=      5-min Rain = 0
KGO1 152352Z 18008KT 36/16 A2997 RMK A01 T03580159  RH  031%=      5-min Rain = 0
KGO1 152353Z 18006KT 36/16 A2997 RMK A01 T03580161  RH  031%=      5-min Rain = 0
KGO1 152354Z 18007KT 36/16 A2997 RMK A01 T03590163  RH  031%=      5-min Rain = 0
KGO1 152355Z 19008KT 36/16 A2997 RMK A01 T03600160  RH  031%=      5-min Rain = 0
KGO1 152356Z 20009KT 36/16 A2997 RMK A01 T03590163  RH  031%=      5-min Rain = 0
KGO1 152357Z 19008KT 36/16 A2997 RMK A01 T03590156  RH  030%=      5-min Rain = 0
KGO1 152358Z 19010KT 36/16 A2997 RMK A01 T03580157  RH  030%=      5-min Rain = 0
KGO1 152359Z 20009KT 36/16 A2997 RMK A01 T03570158  RH  031%=      5-min Rain = 0
KGO1 160000Z 21010KT 36/16 A2997 RMK A01 T03570164  RH  032%=      5-min Rain = 0
KGO1 160001Z 20010KT 36/16 A2997 RMK A01 T03560163  RH  032%=      5-min Rain = 0
KGO1 160002Z 19009KT 36/16 A2997 RMK A01 T03550163  RH  032%=      5-min Rain = 0
KGO1 160003Z 18010KT 35/16 A2997 RMK A01 T03540163  RH  032%=      5-min Rain = 0
KGO1 160004Z 19010KT 35/16 A2997 RMK A01 T03540161  RH  032%=      5-min Rain = 0
KGO1 160005Z 19010KT 35/16 A2997 RMK A01 T03540160  RH  032%=      5-min Rain = 0
KGO1 160006Z 18010KT 35/17 A2997 RMK A01 T03530165  RH  033%=      5-min Rain = 0
KGO1 160007Z 18011KT 35/16 A2997 RMK A01 T03530163  RH  032%=      5-min Rain = 0
KGO1 160008Z 18011KT 35/16 A2997 RMK A01 T03530162  RH  032%=      5-min Rain = 0
KGO1 160009Z 18010KT 35/16 A2997 RMK A01 T03530164  RH  032%=      5-min Rain = 0
KGO1 160010Z 18010KT 35/17 A2997 RMK A01 T03520166  RH  033%=      5-min Rain = 0
KGO1 160011Z 18010KT 35/17 A2997 RMK A01 T03520166  RH  033%=      5-min Rain = 0
KGO1 160012Z 18011KT 35/16 A2997 RMK A01 T03520164  RH  033%=      5-min Rain = 0
KGO1 160013Z 18010KT 35/16 A2996 RMK A01 T03520164  RH  033%=      5-min Rain = 0
KGO1 160014Z 18009KT 35/17 A2996 RMK A01 T03520165  RH  033%=      5-min Rain = 0
KGO1 160015Z 17011KT 35/17 A2996 RMK A01 T03520166  RH  033%=      5-min Rain = 0
KGO1 160016Z 18008KT 35/17 A2996 RMK A01 T03510168  RH  034%=      5-min Rain = 0
KGO1 160017Z 17009KT 35/17 A2996 RMK A01 T03510169  RH  034%=      5-min Rain = 0
KGO1 160018Z 17010KT 35/17 A2996 RMK A01 T03510167  RH  034%=      5-min Rain = 0
KGO1 160019Z 18008KT 35/16 A2996 RMK A01 T03510164  RH  033%=      5-min Rain = 0
KGO1 160020Z 18007KT 35/17 A2997 RMK A01 T03500169  RH  034%=      5-min Rain = 0
KGO1 160021Z 18008KT 35/17 A2997 RMK A01 T03500169  RH  034%=      5-min Rain = 0
KGO1 160022Z 17010KT 35/16 A2996 RMK A01 T03500164  RH  033%=      5-min Rain = 0
KGO1 160023Z 18009KT 35/16 A2997 RMK A01 T03500164  RH  033%=      5-min Rain = 0
KGO1 160024Z 18008KT 35/17 A2997 RMK A01 T03500165  RH  033%=      5-min Rain = 0
KGO1 160025Z 19009KT 35/17 A2997 RMK A01 T03490170  RH  035%=      5-min Rain = 0
KGO1 160026Z 18011KT 35/17 A2997 RMK A01 T03480166  RH  034%=      5-min Rain = 0
KGO1 160027Z 19010KT 35/17 A2997 RMK A01 T03480166  RH  034%=      5-min Rain = 0
KGO1 160028Z 18008KT 35/17 A2997 RMK A01 T03470168  RH  035%=      5-min Rain = 0
KGO1 160029Z 17009KT 35/17 A2997 RMK A01 T03460172  RH  036%=      5-min Rain = 0
KGO1 160030Z 17008KT 35/17 A2997 RMK A01 T03450171  RH  035%=      5-min Rain = 0
KGO1 160031Z 17009KT 35/17 A2997 RMK A01 T03450170  RH  035%=      5-min Rain = 0
KGO1 160032Z 18009KT 35/17 A2997 RMK A01 T03450170  RH  035%=      5-min Rain = 0
KGO1 160033Z 17011KT 35/17 A2997 RMK A01 T03450166  RH  035%=      5-min Rain = 0
KGO1 160034Z 17012KT 35/17 A2997 RMK A01 T03450166  RH  034%=      5-min Rain = 0
KGO1 160035Z 17011KT 35/17 A2997 RMK A01 T03450166  RH  035%=      5-min Rain = 0
KGO1 160036Z 17010KT 35/17 A2997 RMK A01 T03450167  RH  035%=      5-min Rain = 0
KGO1 160037Z 17009KT 34/17 A2997 RMK A01 T03440170  RH  036%=      5-min Rain = 0
KGO1 160038Z 17011KT 34/17 A2997 RMK A01 T03430168  RH  035%=      5-min Rain = 0
KGO1 160039Z 17010KT 34/17 A2997 RMK A01 T03430168  RH  035%=      5-min Rain = 0
KGO1 160040Z 17011KT 34/17 A2997 RMK A01 T03430167  RH  035%=      5-min Rain = 0
KGO1 160041Z 17008KT 34/17 A2997 RMK A01 T03420170  RH  036%=      5-min Rain = 0
KGO1 160042Z 17010KT 34/17 A2997 RMK A01 T03420171  RH  036%=      5-min Rain = 0
KGO1 160043Z 16009KT 34/17 A2997 RMK A01 T03410168  RH  036%=      5-min Rain = 0
KGO1 160044Z 17010KT 34/17 A2997 RMK A01 T03410172  RH  037%=      5-min Rain = 0
KGO1 160045Z 17008KT 34/17 A2997 RMK A01 T03410172  RH  037%=      5-min Rain = 0
KGO1 160046Z 16008KT 34/18 A2997 RMK A01 T03400175  RH  037%=      5-min Rain = 0
KGO1 160047Z 17008KT 34/18 A2997 RMK A01 T03390175  RH  038%=      5-min Rain = 0
KGO1 160048Z 16010KT 34/18 A2997 RMK A01 T03380175  RH  038%=      5-min Rain = 0
KGO1 160049Z 15014G20KT 34/17 A2997 RMK A01 T03380173  RH  037%=      5-min Rain = 0
KGO1 160050Z 14019KT 34/17 A2998 RMK A01 T03350168  RH  037%=      5-min Rain = 0
KGO1 160051Z 14018KT 33/17 A2998 RMK A01 T03280169  RH  039%=      5-min Rain = 0
KGO1 160052Z 14016KT 32/17 A2998 RMK A01 T03230168  RH  040%=      5-min Rain = 0
KGO1 160053Z 15014KT 32/17 A2998 RMK A01 T03190169  RH  041%=      5-min Rain = 0
KGO1 160054Z 14015G21KT 32/17 A2998 RMK A01 T03170170  RH  041%=      5-min Rain = 0
KGO1 160055Z 15018KT 32/17 A2997 RMK A01 T03150168  RH  041%=      5-min Rain = 0
KGO1 160056Z 15017KT 31/17 A2998 RMK A01 T03130167  RH  041%=      5-min Rain = 0
KGO1 160057Z 16017KT 31/17 A2998 RMK A01 T03110166  RH  042%=      5-min Rain = 0
KGO1 160058Z 15018KT 31/17 A2998 RMK A01 T03090166  RH  042%=      5-min Rain = 0
KGO1 160059Z 15018KT 31/17 A2998 RMK A01 T03070165  RH  043%=      5-min Rain = 0
KGO1 160100Z 15020G25KT 31/17 A2998 RMK A01 T03050166  RH  043%=      5-min Rain = 0
KGO1 160101Z 15017G22KT 30/17 A2998 RMK A01 T03030167  RH  044%=      5-min Rain = 0
KGO1 160102Z 15018KT 30/17 A2998 RMK A01 T03020168  RH  045%=      5-min Rain = 0
KGO1 160103Z 15016KT 30/17 A2998 RMK A01 T03000167  RH  045%=      5-min Rain = 0
KGO1 160104Z 15017KT 30/17 A2998 RMK A01 T03000170  RH  046%=      5-min Rain = 0
KGO1 160105Z 15016KT 30/17 A2998 RMK A01 T02990170  RH  046%=      5-min Rain = 0
KGO1 160106Z 15015KT 30/17 A2998 RMK A01 T02980170  RH  046%=      5-min Rain = 0
KGO1 160107Z 15016KT 30/17 A2998 RMK A01 T02970170  RH  046%=      5-min Rain = 0
KGO1 160108Z 15016KT 30/17 A2998 RMK A01 T02970171  RH  047%=      5-min Rain = 0
KGO1 160109Z 15013KT 30/17 A2999 RMK A01 T02960173  RH  047%=      5-min Rain = 0
KGO1 160110Z 16013KT 30/17 A2999 RMK A01 T02950173  RH  048%=      5-min Rain = 0
KGO1 160111Z 16013KT 29/17 A2999 RMK A01 T02940174  RH  048%=      5-min Rain = 0
KGO1 160112Z 15014KT 29/17 A2999 RMK A01 T02940174  RH  048%=      5-min Rain = 0
KGO1 160113Z 15015KT 29/17 A2998 RMK A01 T02930174  RH  049%=      5-min Rain = 0
KGO1 160114Z 15012KT 29/18 A2998 RMK A01 T02930175  RH  049%=      5-min Rain = 0
KGO1 160115Z 15014KT 29/18 A2998 RMK A01 T02920175  RH  049%=      5-min Rain = 0
KGO1 160116Z 15014KT 29/18 A2998 RMK A01 T02910175  RH  050%=      5-min Rain = 0
KGO1 160117Z 15014KT 29/18 A2998 RMK A01 T02910175  RH  050%=      5-min Rain = 0
KGO1 160118Z 15011KT 29/18 A2998 RMK A01 T02900177  RH  050%=      5-min Rain = 0
KGO1 160119Z 16012KT 29/18 A2998 RMK A01 T02890178  RH  051%=      5-min Rain = 0
KGO1 160120Z 15012KT 29/18 A2998 RMK A01 T02880177  RH  051%=      5-min Rain = 0
KGO1 160121Z 16012KT 29/18 A2998 RMK A01 T02870177  RH  051%=      5-min Rain = 0
KGO1 160122Z 16011KT 29/18 A2998 RMK A01 T02860178  RH  052%=      5-min Rain = 0
KGO1 160123Z 16011KT 29/18 A2998 RMK A01 T02860178  RH  052%=      5-min Rain = 0
KGO1 160124Z 16010KT 29/18 A2998 RMK A01 T02850178  RH  052%=      5-min Rain = 0
KGO1 160125Z 16010KT 29/18 A2999 RMK A01 T02850178  RH  052%=      5-min Rain = 0
KGO1 160126Z 16011KT 28/18 A2999 RMK A01 T02840177  RH  052%=      5-min Rain = 0
KGO1 160127Z 16013KT 28/18 A2999 RMK A01 T02840176  RH  052%=      5-min Rain = 0
KGO1 160128Z 17013KT 28/17 A2999 RMK A01 T02840174  RH  051%=      5-min Rain = 0
KGO1 160129Z 17012KT 28/17 A2999 RMK A01 T02840174  RH  051%=      5-min Rain = 0
KGO1 160130Z 16012KT 28/17 A2998 RMK A01 T02840173  RH  051%=      5-min Rain = 0
KGO1 160131Z 17011KT 28/17 A2998 RMK A01 T02840173  RH  051%=      5-min Rain = 0
KGO1 160132Z 17012KT 28/17 A2998 RMK A01 T02830172  RH  051%=      5-min Rain = 0
KGO1 160133Z 17010KT 28/17 A2998 RMK A01 T02830174  RH  052%=      5-min Rain = 0
KGO1 160134Z 17011KT 28/18 A2998 RMK A01 T02820175  RH  052%=      5-min Rain = 0
KGO1 160135Z 16010KT 28/18 A2998 RMK A01 T02810175  RH  052%=      5-min Rain = 0
KGO1 160136Z 16011KT 28/18 A2998 RMK A01 T02810176  RH  053%=      5-min Rain = 0
KGO1 160137Z 16011KT 28/18 A2998 RMK A01 T02800176  RH  053%=      5-min Rain = 0
KGO1 160138Z 16012KT 28/18 A2998 RMK A01 T02790176  RH  053%=      5-min Rain = 0
KGO1 160139Z 16012KT 28/18 A2999 RMK A01 T02790176  RH  053%=      5-min Rain = 0
KGO1 160140Z 16012KT 28/18 A2999 RMK A01 T02790175  RH  053%=      5-min Rain = 0
KGO1 160141Z 16012KT 28/18 A2999 RMK A01 T02790176  RH  053%=      5-min Rain = 0
KGO1 160142Z 16013KT 28/18 A2998 RMK A01 T02780175  RH  053%=      5-min Rain = 0
KGO1 160143Z 16013KT 28/18 A2998 RMK A01 T02780175  RH  054%=      5-min Rain = 0
KGO1 160144Z 16013KT 28/18 A2999 RMK A01 T02780176  RH  054%=      5-min Rain = 0
KGO1 160145Z 16014KT 28/18 A2999 RMK A01 T02780176  RH  054%=      5-min Rain = 0
KGO1 160146Z 16017KT 28/17 A2999 RMK A01 T02780173  RH  053%=      5-min Rain = 0
KGO1 160147Z 16015KT 28/17 A2999 RMK A01 T02780170  RH  052%=      5-min Rain = 0
KGO1 160148Z 17018KT 28/17 A2999 RMK A01 T02780168  RH  051%=      5-min Rain = 0
KGO1 160149Z 16018G23KT 28/17 A2999 RMK A01 T02780165  RH  050%=      5-min Rain = 0
KGO1 160150Z 16020KT 28/16 A2998 RMK A01 T02770162  RH  050%=      5-min Rain = 0
KGO1 160151Z 16020KT 28/16 A2998 RMK A01 T02760162  RH  050%=      5-min Rain = 0
KGO1 160152Z 16018KT 28/16 A2999 RMK A01 T02750162  RH  050%=      5-min Rain = 0
KGO1 160153Z 16018KT 27/16 A2999 RMK A01 T02740163  RH  051%=      5-min Rain = 0
KGO1 160154Z 16018KT 27/16 A2999 RMK A01 T02730163  RH  051%=      5-min Rain = 0
KGO1 160155Z 16016KT 27/16 A2999 RMK A01 T02720163  RH  051%=      5-min Rain = 0
KGO1 160156Z 16016KT 27/16 A2999 RMK A01 T02710163  RH  052%=      5-min Rain = 0
KGO1 160157Z 16016KT 27/16 A2999 RMK A01 T02710164  RH  052%=      5-min Rain = 0
KGO1 160158Z 16015KT 27/16 A2999 RMK A01 T02700164  RH  052%=      5-min Rain = 0
KGO1 160159Z 16015KT 27/17 A2999 RMK A01 T02690165  RH  053%=      5-min Rain = 0
KGO1 160200Z 16015KT 27/17 A2999 RMK A01 T02690165  RH  053%=      5-min Rain = 0
KGO1 160201Z 16012KT 27/17 A2999 RMK A01 T02680166  RH  053%=      5-min Rain = 0
KGO1 160202Z 16014KT 27/17 A2999 RMK A01 T02680167  RH  054%=      5-min Rain = 0
KGO1 160203Z 16015KT 27/17 A2999 RMK A01 T02670166  RH  054%=      5-min Rain = 0
KGO1 160204Z 16014KT 27/17 A2999 RMK A01 T02670167  RH  054%=      5-min Rain = 0
KGO1 160205Z 17013KT 27/17 A2999 RMK A01 T02660168  RH  055%=      5-min Rain = 0
KGO1 160206Z 17015KT 27/17 A2999 RMK A01 T02650168  RH  055%=      5-min Rain = 0
KGO1 160207Z 17013KT 27/17 A2999 RMK A01 T02650167  RH  055%=      5-min Rain = 0
KGO1 160208Z 17014KT 27/17 A2999 RMK A01 T02650168  RH  055%=      5-min Rain = 0
KGO1 160209Z 17015KT 26/17 A2999 RMK A01 T02640168  RH  055%=      5-min Rain = 0
KGO1 160210Z 17012KT 26/17 A2999 RMK A01 T02640168  RH  056%=      5-min Rain = 0
KGO1 160211Z 17013KT 26/17 A30 RMK A01 T02630169  RH  056%=      5-min Rain = 0
KGO1 160212Z 17014KT 26/17 A30 RMK A01 T02630167  RH  056%=      5-min Rain = 0
KGO1 160213Z 17013KT 26/17 A30 RMK A01 T02630168  RH  056%=      5-min Rain = 0
KGO1 160214Z 17011KT 26/17 A30 RMK A01 T02620169  RH  056%=      5-min Rain = 0
KGO1 160215Z 17014KT 26/17 A30 RMK A01 T02610169  RH  057%=      5-min Rain = 0
KGO1 160216Z 17012KT 26/17 A30 RMK A01 T02610168  RH  056%=      5-min Rain = 0
KGO1 160217Z 17011KT 26/17 A30 RMK A01 T02610168  RH  057%=      5-min Rain = 0
KGO1 160218Z 17012KT 26/17 A30 RMK A01 T02600169  RH  057%=      5-min Rain = 0
KGO1 160219Z 17012KT 26/17 A30 RMK A01 T02600169  RH  057%=      5-min Rain = 0
KGO1 160220Z 17016KT 26/17 A30 RMK A01 T02600169  RH  057%=      5-min Rain = 0
KGO1 160221Z 17016KT 26/16 A30 RMK A01 T02590164  RH  056%=      5-min Rain = 0
KGO1 160222Z 17016G21KT 26/16 A30 RMK A01 T02600162  RH  055%=      5-min Rain = 0
KGO1 160223Z 18013G18KT 26/16 A30 RMK A01 T02610163  RH  055%=      5-min Rain = 0
KGO1 160224Z 17015KT 26/16 A30 RMK A01 T02610162  RH  055%=      5-min Rain = 0
KGO1 160225Z 18014KT 26/16 A3001 RMK A01 T02610163  RH  055%=      5-min Rain = 0
KGO1 160226Z 17014KT 26/16 A3001 RMK A01 T02600164  RH  055%=      5-min Rain = 0
KGO1 160227Z 17012KT 26/16 A3001 RMK A01 T02600164  RH  056%=      5-min Rain = 0
KGO1 160228Z 17015KT 26/16 A3001 RMK A01 T02590161  RH  055%=      5-min Rain = 0
KGO1 160229Z 17015KT 26/16 A3001 RMK A01 T02590160  RH  054%=      5-min Rain = 0
KGO1 160230Z 18015KT 26/16 A3001 RMK A01 T02590161  RH  054%=      5-min Rain = 0
KGO1 160231Z 18015KT 26/16 A3001 RMK A01 T02590160  RH  055%=      5-min Rain = 0
KGO1 160232Z 18016KT 26/16 A3001 RMK A01 T02590160  RH  054%=      5-min Rain = 0
KGO1 160233Z 18016KT 26/16 A3001 RMK A01 T02590159  RH  054%=      5-min Rain = 0
KGO1 160234Z 17014KT 26/16 A3001 RMK A01 T02590160  RH  054%=      5-min Rain = 0
KGO1 160235Z 18014KT 26/16 A3001 RMK A01 T02590160  RH  055%=      5-min Rain = 0
KGO1 160236Z 18013KT 26/16 A3001 RMK A01 T02580160  RH  055%=      5-min Rain = 0
KGO1 160237Z 17013KT 26/16 A3001 RMK A01 T02580161  RH  055%=      5-min Rain = 0
KGO1 160238Z 18013KT 26/16 A3001 RMK A01 T02580162  RH  055%=      5-min Rain = 0
KGO1 160239Z 17014KT 26/16 A3001 RMK A01 T02580162  RH  055%=      5-min Rain = 0
KGO1 160240Z 17012KT 26/16 A3001 RMK A01 T02580161  RH  055%=      5-min Rain = 0
KGO1 160241Z 17012KT 26/16 A3001 RMK A01 T02580162  RH  055%=      5-min Rain = 0
KGO1 160242Z 17013KT 26/16 A3001 RMK A01 T02580162  RH  055%=      5-min Rain = 0
KGO1 160243Z 17013KT 26/16 A3001 RMK A01 T02580162  RH  055%=      5-min Rain = 0
KGO1 160244Z 17012KT 26/16 A3001 RMK A01 T02580162  RH  056%=      5-min Rain = 0
KGO1 160245Z 17012KT 26/16 A3002 RMK A01 T02570162  RH  056%=      5-min Rain = 0
KGO1 160246Z 17011KT 26/16 A3002 RMK A01 T02560162  RH  056%=      5-min Rain = 0
KGO1 160247Z 17012KT 26/16 A3002 RMK A01 T02560162  RH  056%=      5-min Rain = 0
KGO1 160248Z 16012KT 26/16 A3002 RMK A01 T02560162  RH  056%=      5-min Rain = 0
KGO1 160249Z 17011KT 26/16 A3002 RMK A01 T02560163  RH  056%=      5-min Rain = 0
KGO1 160250Z 16012KT 26/16 A3002 RMK A01 T02550163  RH  057%=      5-min Rain = 0
KGO1 160251Z 17011KT 26/16 A3002 RMK A01 T02550163  RH  057%=      5-min Rain = 0
KGO1 160252Z 16011KT 26/16 A3002 RMK A01 T02550163  RH  057%=      5-min Rain = 0
KGO1 160253Z 16012KT 25/16 A3002 RMK A01 T02540163  RH  057%=      5-min Rain = 0
KGO1 160254Z 17011KT 25/16 A3002 RMK A01 T02540163  RH  057%=      5-min Rain = 0
KGO1 160255Z 17012KT 25/16 A3002 RMK A01 T02540164  RH  057%=      5-min Rain = 0
KGO1 160256Z 17011KT 25/16 A3002 RMK A01 T02530164  RH  058%=      5-min Rain = 0
KGO1 160257Z 17010KT 25/17 A3002 RMK A01 T02530165  RH  058%=      5-min Rain = 0
KGO1 160258Z 17011KT 25/17 A3002 RMK A01 T02530165  RH  058%=      5-min Rain = 0
KGO1 160259Z 17012KT 25/17 A3002 RMK A01 T02520165  RH  058%=      5-min Rain = 0
KGO1 160300Z 17011KT 25/17 A3002 RMK A01 T02520165  RH  058%=      5-min Rain = 0
KGO1 160301Z 17011KT 25/17 A3002 RMK A01 T02530165  RH  058%=      5-min Rain = 0
KGO1 160302Z 17015KT 25/17 A3002 RMK A01 T02530166  RH  058%=      5-min Rain = 0
KGO1 160303Z 18014KT 25/17 A3002 RMK A01 T02540166  RH  058%=      5-min Rain = 0
KGO1 160304Z 17012KT 26/17 A3003 RMK A01 T02550167  RH  058%=      5-min Rain = 0
KGO1 160305Z 18013KT 26/17 A3003 RMK A01 T02550168  RH  058%=      5-min Rain = 0
KGO1 160306Z 17015KT 26/17 A3002 RMK A01 T02560168  RH  058%=      5-min Rain = 0
KGO1 160307Z 17015KT 26/17 A3002 RMK A01 T02560167  RH  058%=      5-min Rain = 0
KGO1 160308Z 17012KT 26/17 A3003 RMK A01 T02560167  RH  058%=      5-min Rain = 0
KGO1 160309Z 17011KT 26/17 A3003 RMK A01 T02560169  RH  058%=      5-min Rain = 0
KGO1 160310Z 18011KT 26/17 A3003 RMK A01 T02550169  RH  059%=      5-min Rain = 0
KGO1 160311Z 18013KT 25/17 A3003 RMK A01 T02540168  RH  059%=      5-min Rain = 0
KGO1 160312Z 18013KT 25/17 A3003 RMK A01 T02540166  RH  058%=      5-min Rain = 0
KGO1 160313Z 18012KT 26/17 A3003 RMK A01 T02550166  RH  058%=      5-min Rain = 0
KGO1 160314Z 18013KT 26/17 A3003 RMK A01 T02550167  RH  058%=      5-min Rain = 0
KGO1 160315Z 18014KT 25/17 A3003 RMK A01 T02540165  RH  058%=      5-min Rain = 0
KGO1 160316Z 18013KT 25/16 A3003 RMK A01 T02540164  RH  058%=      5-min Rain = 0
KGO1 160317Z 18012KT 25/17 A3003 RMK A01 T02540165  RH  058%=      5-min Rain = 0
KGO1 160318Z 18013KT 25/16 A3003 RMK A01 T02530164  RH  058%=      5-min Rain = 0
KGO1 160319Z 19012KT 25/16 A3003 RMK A01 T02530164  RH  058%=      5-min Rain = 0
KGO1 160320Z 18012KT 25/17 A3003 RMK A01 T02530165  RH  058%=      5-min Rain = 0
KGO1 160321Z 19012KT 25/16 A3003 RMK A01 T02530164  RH  058%=      5-min Rain = 0
KGO1 160322Z 19011KT 25/17 A3003 RMK A01 T02530165  RH  058%=      5-min Rain = 0
KGO1 160323Z 18011KT 25/17 A3003 RMK A01 T02520165  RH  059%=      5-min Rain = 0
KGO1 160324Z 18011KT 25/17 A3003 RMK A01 T02510165  RH  059%=      5-min Rain = 0
KGO1 160325Z 17009KT 25/17 A3003 RMK A01 T02510166  RH  059%=      5-min Rain = 0
KGO1 160326Z 18010KT 25/17 A3003 RMK A01 T02500167  RH  060%=      5-min Rain = 0
KGO1 160327Z 18011KT 25/17 A3003 RMK A01 T02490166  RH  060%=      5-min Rain = 0
KGO1 160328Z 17011KT 25/17 A3003 RMK A01 T02490165  RH  060%=      5-min Rain = 0
KGO1 160329Z 18010KT 25/17 A3003 RMK A01 T02490165  RH  060%=      5-min Rain = 0
KGO1 160330Z 18010KT 25/17 A3003 RMK A01 T02490167  RH  060%=      5-min Rain = 0
KGO1 160331Z 18010KT 25/17 A3003 RMK A01 T02480167  RH  060%=      5-min Rain = 0
KGO1 160332Z 18010KT 25/17 A3003 RMK A01 T02480168  RH  061%=      5-min Rain = 0
KGO1 160333Z 18010KT 25/17 A3003 RMK A01 T02470168  RH  061%=      5-min Rain = 0
KGO1 160334Z 18010KT 25/17 A3003 RMK A01 T02470168  RH  061%=      5-min Rain = 0
KGO1 160335Z 18010KT 25/17 A3004 RMK A01 T02470168  RH  061%=      5-min Rain = 0
KGO1 160336Z 18010KT 25/17 A3004 RMK A01 T02470168  RH  062%=      5-min Rain = 0
KGO1 160337Z 18010KT 25/17 A3004 RMK A01 T02470168  RH  062%=      5-min Rain = 0
KGO1 160338Z 18011KT 25/17 A3004 RMK A01 T02470168  RH  062%=      5-min Rain = 0
KGO1 160339Z 17011KT 25/17 A3004 RMK A01 T02470168  RH  061%=      5-min Rain = 0
KGO1 160340Z 18010G15KT 25/17 A3004 RMK A01 T02480168  RH  061%=      5-min Rain = 0
KGO1 160341Z 18013KT 25/17 A3004 RMK A01 T02480168  RH  061%=      5-min Rain = 0
KGO1 160342Z 18011KT 25/17 A3004 RMK A01 T02490168  RH  061%=      5-min Rain = 0
KGO1 160343Z 18010KT 25/17 A3004 RMK A01 T02490169  RH  061%=      5-min Rain = 0
KGO1 160344Z 18011KT 25/17 A3004 RMK A01 T02490170  RH  061%=      5-min Rain = 0
KGO1 160345Z 18010KT 25/17 A3004 RMK A01 T02490169  RH  061%=      5-min Rain = 0
KGO1 160346Z 18011KT 25/17 A3004 RMK A01 T02480170  RH  062%=      5-min Rain = 0
KGO1 160347Z 18009KT 25/17 A3004 RMK A01 T02480171  RH  062%=      5-min Rain = 0
KGO1 160348Z 19010KT 25/17 A3004 RMK A01 T02470171  RH  063%=      5-min Rain = 0
KGO1 160349Z 19011KT 25/17 A3004 RMK A01 T02460171  RH  063%=      5-min Rain = 0
KGO1 160350Z 19011KT 25/17 A3004 RMK A01 T02460171  RH  063%=      5-min Rain = 0
KGO1 160351Z 19012KT 25/17 A3004 RMK A01 T02460171  RH  063%=      5-min Rain = 0
KGO1 160352Z 18011KT 25/17 A3004 RMK A01 T02460170  RH  063%=      5-min Rain = 0
KGO1 160353Z 19013KT 25/17 A3004 RMK A01 T02470171  RH  062%=      5-min Rain = 0
KGO1 160354Z 19013KT 25/17 A3004 RMK A01 T02470170  RH  062%=      5-min Rain = 0
KGO1 160355Z 19013KT 25/17 A3004 RMK A01 T02480169  RH  062%=      5-min Rain = 0
KGO1 160356Z 19012KT 25/17 A3004 RMK A01 T02480169  RH  061%=      5-min Rain = 0
KGO1 160357Z 19013KT 25/17 A3004 RMK A01 T02490169  RH  061%=      5-min Rain = 0
KGO1 160358Z 18011KT 25/17 A3004 RMK A01 T02490170  RH  061%=      5-min Rain = 0
KGO1 160359Z 19013KT 25/17 A3004 RMK A01 T02490170  RH  061%=      5-min Rain = 0
KGO1 160400Z 19012KT 25/17 A3004 RMK A01 T02480169  RH  061%=      5-min Rain = 0
KGO1 160401Z 18013KT 25/17 A3004 RMK A01 T02490169  RH  061%=      5-min Rain = 0
KGO1 160402Z 19013KT 25/17 A3004 RMK A01 T02500169  RH  061%=      5-min Rain = 0
KGO1 160403Z 19013KT 25/17 A3004 RMK A01 T02500168  RH  061%=      5-min Rain = 0
KGO1 160404Z 19013KT 25/17 A3004 RMK A01 T02500168  RH  060%=      5-min Rain = 0
KGO1 160405Z 19012KT 25/17 A3004 RMK A01 T02510169  RH  060%=      5-min Rain = 0
KGO1 160406Z 19013KT 25/17 A3004 RMK A01 T02510169  RH  060%=      5-min Rain = 0
KGO1 160407Z 19012KT 25/17 A3004 RMK A01 T02510170  RH  061%=      5-min Rain = 0
KGO1 160408Z 19012KT 25/17 A3004 RMK A01 T02510169  RH  061%=      5-min Rain = 0
KGO1 160409Z 19012KT 25/17 A3004 RMK A01 T02500170  RH  061%=      5-min Rain = 0
KGO1 160410Z 19013KT 25/17 A3004 RMK A01 T02500169  RH  061%=      5-min Rain = 0
KGO1 160411Z 19012KT 25/17 A3004 RMK A01 T02500168  RH  060%=      5-min Rain = 0
KGO1 160412Z 19013KT 25/17 A3004 RMK A01 T02510169  RH  061%=      5-min Rain = 0
KGO1 160413Z 19013KT 25/17 A3004 RMK A01 T02500168  RH  060%=      5-min Rain = 0
KGO1 160414Z 19013KT 25/17 A3004 RMK A01 T02510167  RH  059%=      5-min Rain = 0
KGO1 160415Z 19012KT 25/17 A3004 RMK A01 T02520168  RH  059%=      5-min Rain = 0
KGO1 160416Z 19016KT 25/17 A3004 RMK A01 T02520166  RH  059%=      5-min Rain = 0
KGO1 160417Z 20013KT 25/17 A3004 RMK A01 T02540165  RH  058%=      5-min Rain = 0
KGO1 160418Z 19013KT 26/17 A3004 RMK A01 T02550166  RH  058%=      5-min Rain = 0
KGO1 160419Z 19015G20KT 26/17 A3004 RMK A01 T02550166  RH  058%=      5-min Rain = 0
KGO1 160420Z 19017KT 26/16 A3004 RMK A01 T02550163  RH  057%=      5-min Rain = 0
KGO1 160421Z 19014KT 26/16 A3004 RMK A01 T02570164  RH  057%=      5-min Rain = 0
KGO1 160422Z 19014KT 26/17 A3004 RMK A01 T02570165  RH  057%=      5-min Rain = 0
KGO1 160423Z 19013KT 26/16 A3004 RMK A01 T02560164  RH  057%=      5-min Rain = 0
KGO1 160424Z 19014KT 26/16 A3004 RMK A01 T02550164  RH  057%=      5-min Rain = 0
KGO1 160425Z 19014KT 26/16 A3004 RMK A01 T02550163  RH  057%=      5-min Rain = 0
KGO1 160426Z 19014KT 25/16 A3004 RMK A01 T02540163  RH  057%=      5-min Rain = 0
KGO1 160427Z 19013KT 25/16 A3004 RMK A01 T02540163  RH  057%=      5-min Rain = 0
KGO1 160428Z 19013KT 25/16 A3004 RMK A01 T02540163  RH  057%=      5-min Rain = 0
KGO1 160429Z 19014KT 25/16 A3004 RMK A01 T02540162  RH  057%=      5-min Rain = 0
KGO1 160430Z 20011KT 26/16 A3004 RMK A01 T02560162  RH  056%=      5-min Rain = 0
KGO1 160431Z 20013KT 26/16 A3004 RMK A01 T02550164  RH  057%=      5-min Rain = 0
KGO1 160432Z 20014KT 26/16 A3004 RMK A01 T02550163  RH  057%=      5-min Rain = 0
KGO1 160433Z 20014KT 26/16 A3004 RMK A01 T02550162  RH  056%=      5-min Rain = 0
KGO1 160434Z 19014KT 26/16 A3004 RMK A01 T02550162  RH  056%=      5-min Rain = 0
KGO1 160435Z 19013KT 26/16 A3004 RMK A01 T02550162  RH  056%=      5-min Rain = 0
KGO1 160436Z 19012KT 26/16 A3004 RMK A01 T02550162  RH  056%=      5-min Rain = 0
KGO1 160437Z 19014KT 26/16 A3004 RMK A01 T02550162  RH  056%=      5-min Rain = 0
KGO1 160438Z 19013KT 26/16 A3004 RMK A01 T02560161  RH  056%=      5-min Rain = 0
KGO1 160439Z 19012KT 26/16 A3004 RMK A01 T02560163  RH  056%=      5-min Rain = 0
KGO1 160440Z 19012KT 26/16 A3004 RMK A01 T02560163  RH  056%=      5-min Rain = 0
KGO1 160441Z 19013KT 26/16 A3004 RMK A01 T02550162  RH  056%=      5-min Rain = 0
KGO1 160442Z 19012KT 26/16 A3004 RMK A01 T02560161  RH  056%=      5-min Rain = 0
KGO1 160443Z 19012KT 26/16 A3004 RMK A01 T02570162  RH  056%=      5-min Rain = 0
KGO1 160444Z 19012KT 26/16 A3004 RMK A01 T02560161  RH  056%=      5-min Rain = 0
KGO1 160445Z 19014KT 26/16 A3004 RMK A01 T02560161  RH  055%=      5-min Rain = 0
KGO1 160446Z 19013KT 26/16 A3004 RMK A01 T02570160  RH  055%=      5-min Rain = 0
KGO1 160447Z 19012KT 26/16 A3004 RMK A01 T02570161  RH  055%=      5-min Rain = 0
KGO1 160448Z 19013KT 26/16 A3004 RMK A01 T02570161  RH  055%=      5-min Rain = 0
KGO1 160449Z 19014KT 26/16 A3004 RMK A01 T02570160  RH  055%=      5-min Rain = 0
KGO1 160450Z 19012KT 26/16 A3004 RMK A01 T02570159  RH  055%=      5-min Rain = 0
KGO1 160451Z 19013KT 26/16 A3004 RMK A01 T02570160  RH  055%=      5-min Rain = 0
KGO1 160452Z 18014KT 26/16 A3004 RMK A01 T02570159  RH  055%=      5-min Rain = 0
KGO1 160453Z 19013KT 26/16 A3004 RMK A01 T02570158  RH  054%=      5-min Rain = 0
KGO1 160454Z 19013KT 26/16 A3004 RMK A01 T02580158  RH  054%=      5-min Rain = 0
KGO1 160455Z 19014KT 26/16 A3004 RMK A01 T02580158  RH  054%=      5-min Rain = 0
KGO1 160456Z 19014KT 26/16 A3004 RMK A01 T02580158  RH  054%=      5-min Rain = 0
KGO1 160457Z 19013KT 26/16 A3004 RMK A01 T02580158  RH  054%=      5-min Rain = 0
KGO1 160458Z 19014KT 26/16 A3004 RMK A01 T02580158  RH  054%=      5-min Rain = 0
KGO1 160459Z 19014KT 26/16 A3003 RMK A01 T02580158  RH  054%=      5-min Rain = 0

Page generated in 0.0723 seconds.